<?xml version="1.0" encoding="UTF-8" standalone="no" ?>
<gpx xmlns="http://www.topografix.com/GPX/1/1" xmlns:xsi="http://www.w3.org/2001/XMLSchema-instance" xsi:schemaLocation="http://www.topografix.com/GPX/1/1 http://www.topografix.com/GPX/1/1/gpx.xsd" version="1.1" creator="VisuGPX - https://www.visugpx.com">
  <metadata>
    <name>RSPFY-Raizeux</name>
    <desc><![CDATA[Marche nordique entre Raizeux, Hermeray et Epernon. ]]></desc>
  </metadata>
  <trk>
    <name><![CDATA[2025-03-20 09:04]]></name>
    <desc><![CDATA[<p>Heure de départ: 09:04 20 mars 2025<br/>Heure d'arrivée: 11:37 20 mars 2025<br/>Distance: 12,2 km (02:32)<br/>Temps déplacement: 02:19<br/>Vitesse moyenne: 4,77 km/h<br/>Vitesse moyenne mouv.: 5,22 km/h<br/>Vitesse Max.: 6,81 km/h<br/>Altitude minimale: 110 m<br/>Altitude maximale: 164 m<br/>Vitesse de montée: 151,3 m/h<br/>Vitesse de descente: -156,1 m/h<br/>Gain d'altitude: 189 m<br/>Perte d'altitude: -183 m<br/>Temps de montée: 01:15<br/>Temps de descente: 01:10<br/></p><hr align="center" width="480" style="height: 2px; width: 517px"/>]]></desc>
    <trkseg>
      <trkpt lat="48.62417" lon="1.68221">
        <ele>120.9</ele>
        <time>2025-03-20T08:04:23Z</time>
      </trkpt>
      <trkpt lat="48.6241" lon="1.68232">
        <ele>120.8</ele>
        <time>2025-03-20T08:04:32Z</time>
      </trkpt>
      <trkpt lat="48.62404" lon="1.68244">
        <ele>120.5</ele>
        <time>2025-03-20T08:04:41Z</time>
      </trkpt>
      <trkpt lat="48.62402" lon="1.68258">
        <ele>120.6</ele>
        <time>2025-03-20T08:04:49Z</time>
      </trkpt>
      <trkpt lat="48.62396" lon="1.68269">
        <ele>120.8</ele>
        <time>2025-03-20T08:04:56Z</time>
      </trkpt>
      <trkpt lat="48.62394" lon="1.68284">
        <ele>121</ele>
        <time>2025-03-20T08:05:05Z</time>
      </trkpt>
      <trkpt lat="48.62394" lon="1.68299">
        <ele>121</ele>
        <time>2025-03-20T08:05:13Z</time>
      </trkpt>
      <trkpt lat="48.62394" lon="1.68314">
        <ele>121</ele>
        <time>2025-03-20T08:05:21Z</time>
      </trkpt>
      <trkpt lat="48.62393" lon="1.68328">
        <ele>121</ele>
        <time>2025-03-20T08:05:28Z</time>
      </trkpt>
      <trkpt lat="48.62384" lon="1.68329">
        <ele>121.2</ele>
        <time>2025-03-20T08:05:36Z</time>
      </trkpt>
      <trkpt lat="48.62375" lon="1.68325">
        <ele>121.4</ele>
        <time>2025-03-20T08:05:44Z</time>
      </trkpt>
      <trkpt lat="48.62365" lon="1.68322">
        <ele>121.5</ele>
        <time>2025-03-20T08:05:52Z</time>
      </trkpt>
      <trkpt lat="48.62356" lon="1.68318">
        <ele>121.5</ele>
        <time>2025-03-20T08:06:00Z</time>
      </trkpt>
      <trkpt lat="48.62346" lon="1.68314">
        <ele>121.3</ele>
        <time>2025-03-20T08:06:08Z</time>
      </trkpt>
      <trkpt lat="48.62337" lon="1.6831">
        <ele>121.2</ele>
        <time>2025-03-20T08:06:15Z</time>
      </trkpt>
      <trkpt lat="48.62328" lon="1.68307">
        <ele>121.3</ele>
        <time>2025-03-20T08:06:22Z</time>
      </trkpt>
      <trkpt lat="48.62318" lon="1.68301">
        <ele>121.4</ele>
        <time>2025-03-20T08:06:29Z</time>
      </trkpt>
      <trkpt lat="48.6231" lon="1.68293">
        <ele>121.5</ele>
        <time>2025-03-20T08:06:36Z</time>
      </trkpt>
      <trkpt lat="48.62302" lon="1.68284">
        <ele>121.4</ele>
        <time>2025-03-20T08:06:43Z</time>
      </trkpt>
      <trkpt lat="48.62294" lon="1.68276">
        <ele>121.3</ele>
        <time>2025-03-20T08:06:49Z</time>
      </trkpt>
      <trkpt lat="48.62287" lon="1.68267">
        <ele>121</ele>
        <time>2025-03-20T08:06:55Z</time>
      </trkpt>
      <trkpt lat="48.62279" lon="1.68258">
        <ele>120.6</ele>
        <time>2025-03-20T08:07:01Z</time>
      </trkpt>
      <trkpt lat="48.62271" lon="1.68251">
        <ele>120.3</ele>
        <time>2025-03-20T08:07:07Z</time>
      </trkpt>
      <trkpt lat="48.62265" lon="1.68241">
        <ele>120.3</ele>
        <time>2025-03-20T08:07:13Z</time>
      </trkpt>
      <trkpt lat="48.62257" lon="1.68231">
        <ele>120.3</ele>
        <time>2025-03-20T08:07:20Z</time>
      </trkpt>
      <trkpt lat="48.62248" lon="1.68224">
        <ele>120.1</ele>
        <time>2025-03-20T08:07:27Z</time>
      </trkpt>
      <trkpt lat="48.6224" lon="1.68215">
        <ele>120.3</ele>
        <time>2025-03-20T08:07:34Z</time>
      </trkpt>
      <trkpt lat="48.62232" lon="1.68207">
        <ele>120.3</ele>
        <time>2025-03-20T08:07:41Z</time>
      </trkpt>
      <trkpt lat="48.62224" lon="1.68199">
        <ele>120.1</ele>
        <time>2025-03-20T08:07:48Z</time>
      </trkpt>
      <trkpt lat="48.62215" lon="1.68192">
        <ele>120.2</ele>
        <time>2025-03-20T08:07:55Z</time>
      </trkpt>
      <trkpt lat="48.62207" lon="1.68184">
        <ele>120.2</ele>
        <time>2025-03-20T08:08:02Z</time>
      </trkpt>
      <trkpt lat="48.62199" lon="1.68178">
        <ele>120.2</ele>
        <time>2025-03-20T08:08:09Z</time>
      </trkpt>
      <trkpt lat="48.6219" lon="1.6817">
        <ele>120.1</ele>
        <time>2025-03-20T08:08:16Z</time>
      </trkpt>
      <trkpt lat="48.62181" lon="1.68163">
        <ele>119.9</ele>
        <time>2025-03-20T08:08:23Z</time>
      </trkpt>
      <trkpt lat="48.62173" lon="1.68155">
        <ele>119.9</ele>
        <time>2025-03-20T08:08:30Z</time>
      </trkpt>
      <trkpt lat="48.62165" lon="1.68147">
        <ele>120</ele>
        <time>2025-03-20T08:08:37Z</time>
      </trkpt>
      <trkpt lat="48.62157" lon="1.68139">
        <ele>120</ele>
        <time>2025-03-20T08:08:44Z</time>
      </trkpt>
      <trkpt lat="48.62148" lon="1.68131">
        <ele>120</ele>
        <time>2025-03-20T08:08:51Z</time>
      </trkpt>
      <trkpt lat="48.62139" lon="1.68123">
        <ele>120</ele>
        <time>2025-03-20T08:08:58Z</time>
      </trkpt>
      <trkpt lat="48.62131" lon="1.68116">
        <ele>119.8</ele>
        <time>2025-03-20T08:09:05Z</time>
      </trkpt>
      <trkpt lat="48.62122" lon="1.68108">
        <ele>119.4</ele>
        <time>2025-03-20T08:09:12Z</time>
      </trkpt>
      <trkpt lat="48.62125" lon="1.68095">
        <ele>119.2</ele>
        <time>2025-03-20T08:09:23Z</time>
      </trkpt>
      <trkpt lat="48.6213" lon="1.68082">
        <ele>119</ele>
        <time>2025-03-20T08:09:30Z</time>
      </trkpt>
      <trkpt lat="48.62135" lon="1.68069">
        <ele>118.5</ele>
        <time>2025-03-20T08:09:38Z</time>
      </trkpt>
      <trkpt lat="48.6214" lon="1.68056">
        <ele>118.1</ele>
        <time>2025-03-20T08:09:46Z</time>
      </trkpt>
      <trkpt lat="48.62146" lon="1.68044">
        <ele>118.1</ele>
        <time>2025-03-20T08:09:54Z</time>
      </trkpt>
      <trkpt lat="48.6215" lon="1.68031">
        <ele>118</ele>
        <time>2025-03-20T08:10:01Z</time>
      </trkpt>
      <trkpt lat="48.62155" lon="1.68018">
        <ele>118</ele>
        <time>2025-03-20T08:10:08Z</time>
      </trkpt>
      <trkpt lat="48.62159" lon="1.68006">
        <ele>118</ele>
        <time>2025-03-20T08:10:15Z</time>
      </trkpt>
      <trkpt lat="48.62164" lon="1.67994">
        <ele>118</ele>
        <time>2025-03-20T08:10:22Z</time>
      </trkpt>
      <trkpt lat="48.62167" lon="1.67981">
        <ele>118</ele>
        <time>2025-03-20T08:10:28Z</time>
      </trkpt>
      <trkpt lat="48.6217" lon="1.67968">
        <ele>118.1</ele>
        <time>2025-03-20T08:10:35Z</time>
      </trkpt>
      <trkpt lat="48.62164" lon="1.67957">
        <ele>117.9</ele>
        <time>2025-03-20T08:10:51Z</time>
      </trkpt>
      <trkpt lat="48.62156" lon="1.67947">
        <ele>117.6</ele>
        <time>2025-03-20T08:10:59Z</time>
      </trkpt>
      <trkpt lat="48.62149" lon="1.67937">
        <ele>117.6</ele>
        <time>2025-03-20T08:11:06Z</time>
      </trkpt>
      <trkpt lat="48.62142" lon="1.67928">
        <ele>117.7</ele>
        <time>2025-03-20T08:11:13Z</time>
      </trkpt>
      <trkpt lat="48.62135" lon="1.67919">
        <ele>117.9</ele>
        <time>2025-03-20T08:11:20Z</time>
      </trkpt>
      <trkpt lat="48.62127" lon="1.6791">
        <ele>118.1</ele>
        <time>2025-03-20T08:11:27Z</time>
      </trkpt>
      <trkpt lat="48.62118" lon="1.67905">
        <ele>118.1</ele>
        <time>2025-03-20T08:11:34Z</time>
      </trkpt>
      <trkpt lat="48.62109" lon="1.67899">
        <ele>118</ele>
        <time>2025-03-20T08:11:41Z</time>
      </trkpt>
      <trkpt lat="48.62102" lon="1.67889">
        <ele>118</ele>
        <time>2025-03-20T08:11:48Z</time>
      </trkpt>
      <trkpt lat="48.62104" lon="1.67875">
        <ele>118.5</ele>
        <time>2025-03-20T08:11:55Z</time>
      </trkpt>
      <trkpt lat="48.62109" lon="1.67862">
        <ele>119</ele>
        <time>2025-03-20T08:12:03Z</time>
      </trkpt>
      <trkpt lat="48.62114" lon="1.67849">
        <ele>119.5</ele>
        <time>2025-03-20T08:12:11Z</time>
      </trkpt>
      <trkpt lat="48.62118" lon="1.67836">
        <ele>119.9</ele>
        <time>2025-03-20T08:12:19Z</time>
      </trkpt>
      <trkpt lat="48.62122" lon="1.67823">
        <ele>120.2</ele>
        <time>2025-03-20T08:12:26Z</time>
      </trkpt>
      <trkpt lat="48.62127" lon="1.67809">
        <ele>120.4</ele>
        <time>2025-03-20T08:12:34Z</time>
      </trkpt>
      <trkpt lat="48.62125" lon="1.67795">
        <ele>120.5</ele>
        <time>2025-03-20T08:12:45Z</time>
      </trkpt>
      <trkpt lat="48.62117" lon="1.6779">
        <ele>120.5</ele>
        <time>2025-03-20T08:12:52Z</time>
      </trkpt>
      <trkpt lat="48.62115" lon="1.67776">
        <ele>120.3</ele>
        <time>2025-03-20T08:13:00Z</time>
      </trkpt>
      <trkpt lat="48.62118" lon="1.67763">
        <ele>121.7</ele>
        <time>2025-03-20T08:13:07Z</time>
      </trkpt>
      <trkpt lat="48.62123" lon="1.67749">
        <ele>123</ele>
        <time>2025-03-20T08:13:15Z</time>
      </trkpt>
      <trkpt lat="48.62126" lon="1.67736">
        <ele>123.2</ele>
        <time>2025-03-20T08:13:22Z</time>
      </trkpt>
      <trkpt lat="48.62128" lon="1.67723">
        <ele>123.4</ele>
        <time>2025-03-20T08:13:29Z</time>
      </trkpt>
      <trkpt lat="48.62131" lon="1.67709">
        <ele>123.8</ele>
        <time>2025-03-20T08:13:36Z</time>
      </trkpt>
      <trkpt lat="48.62133" lon="1.67694">
        <ele>124.2</ele>
        <time>2025-03-20T08:13:43Z</time>
      </trkpt>
      <trkpt lat="48.62136" lon="1.67679">
        <ele>124.7</ele>
        <time>2025-03-20T08:13:50Z</time>
      </trkpt>
      <trkpt lat="48.62138" lon="1.67664">
        <ele>125.1</ele>
        <time>2025-03-20T08:13:57Z</time>
      </trkpt>
      <trkpt lat="48.62141" lon="1.67649">
        <ele>125.6</ele>
        <time>2025-03-20T08:14:04Z</time>
      </trkpt>
      <trkpt lat="48.62144" lon="1.67635">
        <ele>126.2</ele>
        <time>2025-03-20T08:14:11Z</time>
      </trkpt>
      <trkpt lat="48.62149" lon="1.67622">
        <ele>127</ele>
        <time>2025-03-20T08:14:18Z</time>
      </trkpt>
      <trkpt lat="48.62153" lon="1.67609">
        <ele>127.4</ele>
        <time>2025-03-20T08:14:24Z</time>
      </trkpt>
      <trkpt lat="48.6216" lon="1.67598">
        <ele>126.9</ele>
        <time>2025-03-20T08:14:31Z</time>
      </trkpt>
      <trkpt lat="48.62167" lon="1.67588">
        <ele>126.2</ele>
        <time>2025-03-20T08:14:37Z</time>
      </trkpt>
      <trkpt lat="48.62174" lon="1.6758">
        <ele>126.1</ele>
        <time>2025-03-20T08:14:43Z</time>
      </trkpt>
      <trkpt lat="48.62182" lon="1.67572">
        <ele>126.4</ele>
        <time>2025-03-20T08:14:49Z</time>
      </trkpt>
      <trkpt lat="48.6219" lon="1.67564">
        <ele>126.7</ele>
        <time>2025-03-20T08:14:56Z</time>
      </trkpt>
      <trkpt lat="48.62199" lon="1.67556">
        <ele>126.8</ele>
        <time>2025-03-20T08:15:03Z</time>
      </trkpt>
      <trkpt lat="48.62207" lon="1.67547">
        <ele>126.7</ele>
        <time>2025-03-20T08:15:10Z</time>
      </trkpt>
      <trkpt lat="48.62215" lon="1.67539">
        <ele>126.7</ele>
        <time>2025-03-20T08:15:17Z</time>
      </trkpt>
      <trkpt lat="48.62223" lon="1.67531">
        <ele>126.9</ele>
        <time>2025-03-20T08:15:24Z</time>
      </trkpt>
      <trkpt lat="48.62232" lon="1.67523">
        <ele>126.7</ele>
        <time>2025-03-20T08:15:31Z</time>
      </trkpt>
      <trkpt lat="48.62241" lon="1.67515">
        <ele>126.6</ele>
        <time>2025-03-20T08:15:38Z</time>
      </trkpt>
      <trkpt lat="48.62249" lon="1.67509">
        <ele>126.7</ele>
        <time>2025-03-20T08:15:44Z</time>
      </trkpt>
      <trkpt lat="48.62258" lon="1.67502">
        <ele>126.7</ele>
        <time>2025-03-20T08:15:51Z</time>
      </trkpt>
      <trkpt lat="48.62267" lon="1.67495">
        <ele>126.5</ele>
        <time>2025-03-20T08:15:58Z</time>
      </trkpt>
      <trkpt lat="48.62276" lon="1.67489">
        <ele>126.4</ele>
        <time>2025-03-20T08:16:05Z</time>
      </trkpt>
      <trkpt lat="48.62285" lon="1.67483">
        <ele>126.6</ele>
        <time>2025-03-20T08:16:12Z</time>
      </trkpt>
      <trkpt lat="48.62295" lon="1.67476">
        <ele>126.9</ele>
        <time>2025-03-20T08:16:19Z</time>
      </trkpt>
      <trkpt lat="48.62303" lon="1.67471">
        <ele>127</ele>
        <time>2025-03-20T08:16:25Z</time>
      </trkpt>
      <trkpt lat="48.62313" lon="1.67465">
        <ele>127</ele>
        <time>2025-03-20T08:16:32Z</time>
      </trkpt>
      <trkpt lat="48.62322" lon="1.67459">
        <ele>127</ele>
        <time>2025-03-20T08:16:39Z</time>
      </trkpt>
      <trkpt lat="48.62332" lon="1.67454">
        <ele>127</ele>
        <time>2025-03-20T08:16:46Z</time>
      </trkpt>
      <trkpt lat="48.6234" lon="1.67449">
        <ele>127</ele>
        <time>2025-03-20T08:16:53Z</time>
      </trkpt>
      <trkpt lat="48.62349" lon="1.67443">
        <ele>127</ele>
        <time>2025-03-20T08:17:00Z</time>
      </trkpt>
      <trkpt lat="48.62358" lon="1.67437">
        <ele>127.3</ele>
        <time>2025-03-20T08:17:07Z</time>
      </trkpt>
      <trkpt lat="48.62366" lon="1.67429">
        <ele>127.4</ele>
        <time>2025-03-20T08:17:14Z</time>
      </trkpt>
      <trkpt lat="48.62374" lon="1.67421">
        <ele>127.4</ele>
        <time>2025-03-20T08:17:21Z</time>
      </trkpt>
      <trkpt lat="48.62382" lon="1.67413">
        <ele>127.3</ele>
        <time>2025-03-20T08:17:28Z</time>
      </trkpt>
      <trkpt lat="48.62391" lon="1.67404">
        <ele>127.4</ele>
        <time>2025-03-20T08:17:35Z</time>
      </trkpt>
      <trkpt lat="48.62399" lon="1.67395">
        <ele>127.4</ele>
        <time>2025-03-20T08:17:42Z</time>
      </trkpt>
      <trkpt lat="48.62406" lon="1.67386">
        <ele>127.4</ele>
        <time>2025-03-20T08:17:49Z</time>
      </trkpt>
      <trkpt lat="48.62414" lon="1.67377">
        <ele>127.5</ele>
        <time>2025-03-20T08:17:56Z</time>
      </trkpt>
      <trkpt lat="48.62422" lon="1.67367">
        <ele>127.4</ele>
        <time>2025-03-20T08:18:03Z</time>
      </trkpt>
      <trkpt lat="48.6243" lon="1.67357">
        <ele>127.1</ele>
        <time>2025-03-20T08:18:10Z</time>
      </trkpt>
      <trkpt lat="48.62438" lon="1.67348">
        <ele>126.8</ele>
        <time>2025-03-20T08:18:17Z</time>
      </trkpt>
      <trkpt lat="48.62446" lon="1.6734">
        <ele>126.7</ele>
        <time>2025-03-20T08:18:23Z</time>
      </trkpt>
      <trkpt lat="48.62454" lon="1.67331">
        <ele>126.7</ele>
        <time>2025-03-20T08:18:30Z</time>
      </trkpt>
      <trkpt lat="48.62462" lon="1.67324">
        <ele>126.6</ele>
        <time>2025-03-20T08:18:36Z</time>
      </trkpt>
      <trkpt lat="48.6247" lon="1.67317">
        <ele>126.6</ele>
        <time>2025-03-20T08:18:42Z</time>
      </trkpt>
      <trkpt lat="48.62479" lon="1.67309">
        <ele>126.9</ele>
        <time>2025-03-20T08:18:49Z</time>
      </trkpt>
      <trkpt lat="48.62488" lon="1.67302">
        <ele>127</ele>
        <time>2025-03-20T08:18:56Z</time>
      </trkpt>
      <trkpt lat="48.62497" lon="1.67296">
        <ele>127</ele>
        <time>2025-03-20T08:19:03Z</time>
      </trkpt>
      <trkpt lat="48.62506" lon="1.67288">
        <ele>127.1</ele>
        <time>2025-03-20T08:19:10Z</time>
      </trkpt>
      <trkpt lat="48.62515" lon="1.6728">
        <ele>127.5</ele>
        <time>2025-03-20T08:19:17Z</time>
      </trkpt>
      <trkpt lat="48.62523" lon="1.67273">
        <ele>127.9</ele>
        <time>2025-03-20T08:19:24Z</time>
      </trkpt>
      <trkpt lat="48.62532" lon="1.67265">
        <ele>128.1</ele>
        <time>2025-03-20T08:19:31Z</time>
      </trkpt>
      <trkpt lat="48.62541" lon="1.67257">
        <ele>128.4</ele>
        <time>2025-03-20T08:19:38Z</time>
      </trkpt>
      <trkpt lat="48.62549" lon="1.67249">
        <ele>128.8</ele>
        <time>2025-03-20T08:19:44Z</time>
      </trkpt>
      <trkpt lat="48.62557" lon="1.67241">
        <ele>129.3</ele>
        <time>2025-03-20T08:19:51Z</time>
      </trkpt>
      <trkpt lat="48.62565" lon="1.67232">
        <ele>129.7</ele>
        <time>2025-03-20T08:19:58Z</time>
      </trkpt>
      <trkpt lat="48.62573" lon="1.67223">
        <ele>130</ele>
        <time>2025-03-20T08:20:04Z</time>
      </trkpt>
      <trkpt lat="48.6258" lon="1.67215">
        <ele>130</ele>
        <time>2025-03-20T08:20:10Z</time>
      </trkpt>
      <trkpt lat="48.62588" lon="1.67206">
        <ele>129.9</ele>
        <time>2025-03-20T08:20:17Z</time>
      </trkpt>
      <trkpt lat="48.62596" lon="1.67198">
        <ele>129.9</ele>
        <time>2025-03-20T08:20:24Z</time>
      </trkpt>
      <trkpt lat="48.62605" lon="1.6719">
        <ele>130.1</ele>
        <time>2025-03-20T08:20:31Z</time>
      </trkpt>
      <trkpt lat="48.62614" lon="1.67185">
        <ele>130.3</ele>
        <time>2025-03-20T08:20:38Z</time>
      </trkpt>
      <trkpt lat="48.62623" lon="1.6718">
        <ele>130.5</ele>
        <time>2025-03-20T08:20:45Z</time>
      </trkpt>
      <trkpt lat="48.62633" lon="1.67175">
        <ele>130.7</ele>
        <time>2025-03-20T08:20:52Z</time>
      </trkpt>
      <trkpt lat="48.62642" lon="1.67176">
        <ele>130.6</ele>
        <time>2025-03-20T08:20:59Z</time>
      </trkpt>
      <trkpt lat="48.62653" lon="1.67178">
        <ele>130.3</ele>
        <time>2025-03-20T08:21:06Z</time>
      </trkpt>
      <trkpt lat="48.62662" lon="1.6718">
        <ele>130.1</ele>
        <time>2025-03-20T08:21:12Z</time>
      </trkpt>
      <trkpt lat="48.62671" lon="1.67182">
        <ele>129.9</ele>
        <time>2025-03-20T08:21:19Z</time>
      </trkpt>
      <trkpt lat="48.62681" lon="1.67185">
        <ele>129.7</ele>
        <time>2025-03-20T08:21:26Z</time>
      </trkpt>
      <trkpt lat="48.62691" lon="1.67186">
        <ele>129.4</ele>
        <time>2025-03-20T08:21:33Z</time>
      </trkpt>
      <trkpt lat="48.62702" lon="1.67189">
        <ele>129.2</ele>
        <time>2025-03-20T08:21:40Z</time>
      </trkpt>
      <trkpt lat="48.62712" lon="1.67191">
        <ele>129.1</ele>
        <time>2025-03-20T08:21:47Z</time>
      </trkpt>
      <trkpt lat="48.62722" lon="1.67194">
        <ele>129</ele>
        <time>2025-03-20T08:21:54Z</time>
      </trkpt>
      <trkpt lat="48.62732" lon="1.67197">
        <ele>129</ele>
        <time>2025-03-20T08:22:01Z</time>
      </trkpt>
      <trkpt lat="48.62741" lon="1.67201">
        <ele>128.9</ele>
        <time>2025-03-20T08:22:07Z</time>
      </trkpt>
      <trkpt lat="48.6275" lon="1.67204">
        <ele>128.7</ele>
        <time>2025-03-20T08:22:13Z</time>
      </trkpt>
      <trkpt lat="48.62759" lon="1.67208">
        <ele>128.5</ele>
        <time>2025-03-20T08:22:19Z</time>
      </trkpt>
      <trkpt lat="48.62767" lon="1.67212">
        <ele>128.4</ele>
        <time>2025-03-20T08:22:25Z</time>
      </trkpt>
      <trkpt lat="48.62776" lon="1.67216">
        <ele>128.2</ele>
        <time>2025-03-20T08:22:31Z</time>
      </trkpt>
      <trkpt lat="48.62786" lon="1.67222">
        <ele>128</ele>
        <time>2025-03-20T08:22:38Z</time>
      </trkpt>
      <trkpt lat="48.62794" lon="1.67225">
        <ele>128</ele>
        <time>2025-03-20T08:22:44Z</time>
      </trkpt>
      <trkpt lat="48.62803" lon="1.67229">
        <ele>128</ele>
        <time>2025-03-20T08:22:50Z</time>
      </trkpt>
      <trkpt lat="48.62813" lon="1.67234">
        <ele>128</ele>
        <time>2025-03-20T08:22:57Z</time>
      </trkpt>
      <trkpt lat="48.62823" lon="1.67238">
        <ele>128</ele>
        <time>2025-03-20T08:23:04Z</time>
      </trkpt>
      <trkpt lat="48.62832" lon="1.67242">
        <ele>128</ele>
        <time>2025-03-20T08:23:11Z</time>
      </trkpt>
      <trkpt lat="48.62842" lon="1.67247">
        <ele>128</ele>
        <time>2025-03-20T08:23:18Z</time>
      </trkpt>
      <trkpt lat="48.62852" lon="1.67251">
        <ele>128</ele>
        <time>2025-03-20T08:23:25Z</time>
      </trkpt>
      <trkpt lat="48.62861" lon="1.67254">
        <ele>127.8</ele>
        <time>2025-03-20T08:23:31Z</time>
      </trkpt>
      <trkpt lat="48.6287" lon="1.67259">
        <ele>127.5</ele>
        <time>2025-03-20T08:23:38Z</time>
      </trkpt>
      <trkpt lat="48.6288" lon="1.67264">
        <ele>127.2</ele>
        <time>2025-03-20T08:23:45Z</time>
      </trkpt>
      <trkpt lat="48.6289" lon="1.67268">
        <ele>127</ele>
        <time>2025-03-20T08:23:52Z</time>
      </trkpt>
      <trkpt lat="48.629" lon="1.67273">
        <ele>127</ele>
        <time>2025-03-20T08:23:59Z</time>
      </trkpt>
      <trkpt lat="48.62909" lon="1.67278">
        <ele>127</ele>
        <time>2025-03-20T08:24:06Z</time>
      </trkpt>
      <trkpt lat="48.62918" lon="1.67282">
        <ele>126.9</ele>
        <time>2025-03-20T08:24:12Z</time>
      </trkpt>
      <trkpt lat="48.62927" lon="1.67287">
        <ele>126.8</ele>
        <time>2025-03-20T08:24:19Z</time>
      </trkpt>
      <trkpt lat="48.62937" lon="1.67293">
        <ele>126.8</ele>
        <time>2025-03-20T08:24:26Z</time>
      </trkpt>
      <trkpt lat="48.62946" lon="1.67299">
        <ele>127</ele>
        <time>2025-03-20T08:24:33Z</time>
      </trkpt>
      <trkpt lat="48.62955" lon="1.67305">
        <ele>127</ele>
        <time>2025-03-20T08:24:40Z</time>
      </trkpt>
      <trkpt lat="48.62964" lon="1.67312">
        <ele>126.8</ele>
        <time>2025-03-20T08:24:47Z</time>
      </trkpt>
      <trkpt lat="48.62974" lon="1.67317">
        <ele>126.6</ele>
        <time>2025-03-20T08:24:54Z</time>
      </trkpt>
      <trkpt lat="48.62982" lon="1.67323">
        <ele>126.6</ele>
        <time>2025-03-20T08:25:00Z</time>
      </trkpt>
      <trkpt lat="48.6299" lon="1.67331">
        <ele>126.7</ele>
        <time>2025-03-20T08:25:06Z</time>
      </trkpt>
      <trkpt lat="48.62998" lon="1.67338">
        <ele>126.9</ele>
        <time>2025-03-20T08:25:12Z</time>
      </trkpt>
      <trkpt lat="48.63007" lon="1.67346">
        <ele>127.1</ele>
        <time>2025-03-20T08:25:19Z</time>
      </trkpt>
      <trkpt lat="48.63016" lon="1.67352">
        <ele>127.2</ele>
        <time>2025-03-20T08:25:26Z</time>
      </trkpt>
      <trkpt lat="48.63025" lon="1.67359">
        <ele>127.1</ele>
        <time>2025-03-20T08:25:33Z</time>
      </trkpt>
      <trkpt lat="48.63034" lon="1.67365">
        <ele>127.2</ele>
        <time>2025-03-20T08:25:39Z</time>
      </trkpt>
      <trkpt lat="48.63042" lon="1.6737">
        <ele>127.5</ele>
        <time>2025-03-20T08:25:45Z</time>
      </trkpt>
      <trkpt lat="48.63051" lon="1.67367">
        <ele>127.9</ele>
        <time>2025-03-20T08:25:53Z</time>
      </trkpt>
      <trkpt lat="48.63058" lon="1.67379">
        <ele>128.1</ele>
        <time>2025-03-20T08:26:09Z</time>
      </trkpt>
      <trkpt lat="48.63066" lon="1.67384">
        <ele>128.4</ele>
        <time>2025-03-20T08:26:16Z</time>
      </trkpt>
      <trkpt lat="48.63076" lon="1.67389">
        <ele>128.7</ele>
        <time>2025-03-20T08:26:24Z</time>
      </trkpt>
      <trkpt lat="48.63085" lon="1.67394">
        <ele>129</ele>
        <time>2025-03-20T08:26:31Z</time>
      </trkpt>
      <trkpt lat="48.63094" lon="1.67399">
        <ele>129.3</ele>
        <time>2025-03-20T08:26:38Z</time>
      </trkpt>
      <trkpt lat="48.63104" lon="1.67404">
        <ele>129.3</ele>
        <time>2025-03-20T08:26:45Z</time>
      </trkpt>
      <trkpt lat="48.63114" lon="1.67409">
        <ele>129.4</ele>
        <time>2025-03-20T08:26:52Z</time>
      </trkpt>
      <trkpt lat="48.63123" lon="1.67413">
        <ele>129.5</ele>
        <time>2025-03-20T08:26:58Z</time>
      </trkpt>
      <trkpt lat="48.63132" lon="1.67418">
        <ele>129.8</ele>
        <time>2025-03-20T08:27:05Z</time>
      </trkpt>
      <trkpt lat="48.63142" lon="1.67422">
        <ele>130.1</ele>
        <time>2025-03-20T08:27:12Z</time>
      </trkpt>
      <trkpt lat="48.63151" lon="1.67426">
        <ele>130.3</ele>
        <time>2025-03-20T08:27:19Z</time>
      </trkpt>
      <trkpt lat="48.63161" lon="1.67428">
        <ele>130.5</ele>
        <time>2025-03-20T08:27:26Z</time>
      </trkpt>
      <trkpt lat="48.63171" lon="1.67428">
        <ele>130.6</ele>
        <time>2025-03-20T08:27:32Z</time>
      </trkpt>
      <trkpt lat="48.63181" lon="1.67428">
        <ele>130.6</ele>
        <time>2025-03-20T08:27:39Z</time>
      </trkpt>
      <trkpt lat="48.6319" lon="1.67432">
        <ele>130.4</ele>
        <time>2025-03-20T08:27:46Z</time>
      </trkpt>
      <trkpt lat="48.632" lon="1.67437">
        <ele>130.4</ele>
        <time>2025-03-20T08:27:53Z</time>
      </trkpt>
      <trkpt lat="48.6321" lon="1.67441">
        <ele>130.6</ele>
        <time>2025-03-20T08:28:00Z</time>
      </trkpt>
      <trkpt lat="48.6322" lon="1.67446">
        <ele>130.8</ele>
        <time>2025-03-20T08:28:07Z</time>
      </trkpt>
      <trkpt lat="48.63229" lon="1.67452">
        <ele>130.7</ele>
        <time>2025-03-20T08:28:14Z</time>
      </trkpt>
      <trkpt lat="48.63238" lon="1.67458">
        <ele>130.5</ele>
        <time>2025-03-20T08:28:21Z</time>
      </trkpt>
      <trkpt lat="48.63248" lon="1.67463">
        <ele>130.3</ele>
        <time>2025-03-20T08:28:28Z</time>
      </trkpt>
      <trkpt lat="48.63257" lon="1.67469">
        <ele>130.3</ele>
        <time>2025-03-20T08:28:35Z</time>
      </trkpt>
      <trkpt lat="48.63266" lon="1.67474">
        <ele>130.6</ele>
        <time>2025-03-20T08:28:42Z</time>
      </trkpt>
      <trkpt lat="48.63275" lon="1.6748">
        <ele>130.9</ele>
        <time>2025-03-20T08:28:49Z</time>
      </trkpt>
      <trkpt lat="48.63285" lon="1.67486">
        <ele>131.2</ele>
        <time>2025-03-20T08:28:56Z</time>
      </trkpt>
      <trkpt lat="48.63294" lon="1.67491">
        <ele>131.6</ele>
        <time>2025-03-20T08:29:03Z</time>
      </trkpt>
      <trkpt lat="48.63303" lon="1.67497">
        <ele>131.9</ele>
        <time>2025-03-20T08:29:10Z</time>
      </trkpt>
      <trkpt lat="48.63312" lon="1.67503">
        <ele>132.1</ele>
        <time>2025-03-20T08:29:17Z</time>
      </trkpt>
      <trkpt lat="48.6332" lon="1.67509">
        <ele>132.4</ele>
        <time>2025-03-20T08:29:24Z</time>
      </trkpt>
      <trkpt lat="48.63329" lon="1.67515">
        <ele>132.8</ele>
        <time>2025-03-20T08:29:31Z</time>
      </trkpt>
      <trkpt lat="48.63338" lon="1.6752">
        <ele>133.2</ele>
        <time>2025-03-20T08:29:38Z</time>
      </trkpt>
      <trkpt lat="48.63346" lon="1.67526">
        <ele>133.5</ele>
        <time>2025-03-20T08:29:44Z</time>
      </trkpt>
      <trkpt lat="48.63356" lon="1.67532">
        <ele>133.8</ele>
        <time>2025-03-20T08:29:51Z</time>
      </trkpt>
      <trkpt lat="48.63365" lon="1.67539">
        <ele>134.2</ele>
        <time>2025-03-20T08:29:58Z</time>
      </trkpt>
      <trkpt lat="48.63375" lon="1.67545">
        <ele>134.5</ele>
        <time>2025-03-20T08:30:05Z</time>
      </trkpt>
      <trkpt lat="48.63384" lon="1.67551">
        <ele>134.8</ele>
        <time>2025-03-20T08:30:12Z</time>
      </trkpt>
      <trkpt lat="48.63393" lon="1.67557">
        <ele>135.2</ele>
        <time>2025-03-20T08:30:19Z</time>
      </trkpt>
      <trkpt lat="48.63403" lon="1.67562">
        <ele>135.9</ele>
        <time>2025-03-20T08:30:26Z</time>
      </trkpt>
      <trkpt lat="48.63413" lon="1.67564">
        <ele>136.4</ele>
        <time>2025-03-20T08:30:33Z</time>
      </trkpt>
      <trkpt lat="48.63423" lon="1.67565">
        <ele>137.1</ele>
        <time>2025-03-20T08:30:40Z</time>
      </trkpt>
      <trkpt lat="48.63433" lon="1.67565">
        <ele>137.8</ele>
        <time>2025-03-20T08:30:47Z</time>
      </trkpt>
      <trkpt lat="48.63443" lon="1.67565">
        <ele>138.5</ele>
        <time>2025-03-20T08:30:54Z</time>
      </trkpt>
      <trkpt lat="48.63452" lon="1.67564">
        <ele>139.1</ele>
        <time>2025-03-20T08:31:01Z</time>
      </trkpt>
      <trkpt lat="48.63462" lon="1.67563">
        <ele>139.6</ele>
        <time>2025-03-20T08:31:08Z</time>
      </trkpt>
      <trkpt lat="48.63471" lon="1.6756">
        <ele>140.1</ele>
        <time>2025-03-20T08:31:15Z</time>
      </trkpt>
      <trkpt lat="48.63481" lon="1.67557">
        <ele>140.4</ele>
        <time>2025-03-20T08:31:23Z</time>
      </trkpt>
      <trkpt lat="48.63491" lon="1.67554">
        <ele>140.7</ele>
        <time>2025-03-20T08:31:31Z</time>
      </trkpt>
      <trkpt lat="48.63501" lon="1.67552">
        <ele>141</ele>
        <time>2025-03-20T08:31:39Z</time>
      </trkpt>
      <trkpt lat="48.6351" lon="1.6755">
        <ele>140.6</ele>
        <time>2025-03-20T08:31:46Z</time>
      </trkpt>
      <trkpt lat="48.6352" lon="1.67547">
        <ele>140.3</ele>
        <time>2025-03-20T08:31:53Z</time>
      </trkpt>
      <trkpt lat="48.63529" lon="1.67544">
        <ele>140</ele>
        <time>2025-03-20T08:32:00Z</time>
      </trkpt>
      <trkpt lat="48.63539" lon="1.67543">
        <ele>139.8</ele>
        <time>2025-03-20T08:32:07Z</time>
      </trkpt>
      <trkpt lat="48.63549" lon="1.67544">
        <ele>139.6</ele>
        <time>2025-03-20T08:32:14Z</time>
      </trkpt>
      <trkpt lat="48.63559" lon="1.67544">
        <ele>139.4</ele>
        <time>2025-03-20T08:32:22Z</time>
      </trkpt>
      <trkpt lat="48.63568" lon="1.67544">
        <ele>139.4</ele>
        <time>2025-03-20T08:32:30Z</time>
      </trkpt>
      <trkpt lat="48.63577" lon="1.67545">
        <ele>139.4</ele>
        <time>2025-03-20T08:32:38Z</time>
      </trkpt>
      <trkpt lat="48.63586" lon="1.6754">
        <ele>139.5</ele>
        <time>2025-03-20T08:32:45Z</time>
      </trkpt>
      <trkpt lat="48.63596" lon="1.6754">
        <ele>139.3</ele>
        <time>2025-03-20T08:35:31Z</time>
      </trkpt>
      <trkpt lat="48.63606" lon="1.67539">
        <ele>139.1</ele>
        <time>2025-03-20T08:35:39Z</time>
      </trkpt>
      <trkpt lat="48.63615" lon="1.67539">
        <ele>138.8</ele>
        <time>2025-03-20T08:35:46Z</time>
      </trkpt>
      <trkpt lat="48.63625" lon="1.6754">
        <ele>138.5</ele>
        <time>2025-03-20T08:35:53Z</time>
      </trkpt>
      <trkpt lat="48.63634" lon="1.6754">
        <ele>138.2</ele>
        <time>2025-03-20T08:36:00Z</time>
      </trkpt>
      <trkpt lat="48.63643" lon="1.6754">
        <ele>137.8</ele>
        <time>2025-03-20T08:36:06Z</time>
      </trkpt>
      <trkpt lat="48.63653" lon="1.6754">
        <ele>137.5</ele>
        <time>2025-03-20T08:36:14Z</time>
      </trkpt>
      <trkpt lat="48.63663" lon="1.67543">
        <ele>137.1</ele>
        <time>2025-03-20T08:36:21Z</time>
      </trkpt>
      <trkpt lat="48.63665" lon="1.67557">
        <ele>137</ele>
        <time>2025-03-20T08:36:28Z</time>
      </trkpt>
      <trkpt lat="48.63663" lon="1.67573">
        <ele>136.6</ele>
        <time>2025-03-20T08:36:35Z</time>
      </trkpt>
      <trkpt lat="48.63661" lon="1.67587">
        <ele>136.3</ele>
        <time>2025-03-20T08:36:42Z</time>
      </trkpt>
      <trkpt lat="48.63661" lon="1.67602">
        <ele>135.9</ele>
        <time>2025-03-20T08:36:49Z</time>
      </trkpt>
      <trkpt lat="48.63661" lon="1.67617">
        <ele>135.4</ele>
        <time>2025-03-20T08:36:56Z</time>
      </trkpt>
      <trkpt lat="48.63662" lon="1.67632">
        <ele>134.6</ele>
        <time>2025-03-20T08:37:03Z</time>
      </trkpt>
      <trkpt lat="48.63664" lon="1.67648">
        <ele>134.1</ele>
        <time>2025-03-20T08:37:10Z</time>
      </trkpt>
      <trkpt lat="48.63667" lon="1.67661">
        <ele>134</ele>
        <time>2025-03-20T08:37:16Z</time>
      </trkpt>
      <trkpt lat="48.6367" lon="1.67674">
        <ele>133.6</ele>
        <time>2025-03-20T08:37:22Z</time>
      </trkpt>
      <trkpt lat="48.63673" lon="1.67687">
        <ele>133</ele>
        <time>2025-03-20T08:37:28Z</time>
      </trkpt>
      <trkpt lat="48.63677" lon="1.677">
        <ele>132.4</ele>
        <time>2025-03-20T08:37:34Z</time>
      </trkpt>
      <trkpt lat="48.63681" lon="1.67715">
        <ele>131.8</ele>
        <time>2025-03-20T08:37:41Z</time>
      </trkpt>
      <trkpt lat="48.63685" lon="1.67729">
        <ele>131.1</ele>
        <time>2025-03-20T08:37:48Z</time>
      </trkpt>
      <trkpt lat="48.63687" lon="1.67743">
        <ele>130.5</ele>
        <time>2025-03-20T08:37:55Z</time>
      </trkpt>
      <trkpt lat="48.63689" lon="1.67757">
        <ele>129.9</ele>
        <time>2025-03-20T08:38:02Z</time>
      </trkpt>
      <trkpt lat="48.6369" lon="1.67773">
        <ele>129.3</ele>
        <time>2025-03-20T08:38:09Z</time>
      </trkpt>
      <trkpt lat="48.63691" lon="1.67788">
        <ele>129.1</ele>
        <time>2025-03-20T08:38:16Z</time>
      </trkpt>
      <trkpt lat="48.63691" lon="1.67802">
        <ele>129</ele>
        <time>2025-03-20T08:38:23Z</time>
      </trkpt>
      <trkpt lat="48.63691" lon="1.67817">
        <ele>128.6</ele>
        <time>2025-03-20T08:38:30Z</time>
      </trkpt>
      <trkpt lat="48.63691" lon="1.67832">
        <ele>128.2</ele>
        <time>2025-03-20T08:38:37Z</time>
      </trkpt>
      <trkpt lat="48.6369" lon="1.67847">
        <ele>128.2</ele>
        <time>2025-03-20T08:38:44Z</time>
      </trkpt>
      <trkpt lat="48.63689" lon="1.67862">
        <ele>128.2</ele>
        <time>2025-03-20T08:38:51Z</time>
      </trkpt>
      <trkpt lat="48.63687" lon="1.67878">
        <ele>127.7</ele>
        <time>2025-03-20T08:38:58Z</time>
      </trkpt>
      <trkpt lat="48.63686" lon="1.67893">
        <ele>127.3</ele>
        <time>2025-03-20T08:39:05Z</time>
      </trkpt>
      <trkpt lat="48.63684" lon="1.67906">
        <ele>127.4</ele>
        <time>2025-03-20T08:39:11Z</time>
      </trkpt>
      <trkpt lat="48.63682" lon="1.67921">
        <ele>127.4</ele>
        <time>2025-03-20T08:39:18Z</time>
      </trkpt>
      <trkpt lat="48.6368" lon="1.67936">
        <ele>127.1</ele>
        <time>2025-03-20T08:39:25Z</time>
      </trkpt>
      <trkpt lat="48.63679" lon="1.67952">
        <ele>126.9</ele>
        <time>2025-03-20T08:39:32Z</time>
      </trkpt>
      <trkpt lat="48.63677" lon="1.67966">
        <ele>126.7</ele>
        <time>2025-03-20T08:39:39Z</time>
      </trkpt>
      <trkpt lat="48.63675" lon="1.6798">
        <ele>126.5</ele>
        <time>2025-03-20T08:39:45Z</time>
      </trkpt>
      <trkpt lat="48.63674" lon="1.67993">
        <ele>126.2</ele>
        <time>2025-03-20T08:39:51Z</time>
      </trkpt>
      <trkpt lat="48.63671" lon="1.68008">
        <ele>125.7</ele>
        <time>2025-03-20T08:39:58Z</time>
      </trkpt>
      <trkpt lat="48.63668" lon="1.68023">
        <ele>125.2</ele>
        <time>2025-03-20T08:40:05Z</time>
      </trkpt>
      <trkpt lat="48.63665" lon="1.68038">
        <ele>125</ele>
        <time>2025-03-20T08:40:12Z</time>
      </trkpt>
      <trkpt lat="48.63661" lon="1.68052">
        <ele>125</ele>
        <time>2025-03-20T08:40:19Z</time>
      </trkpt>
      <trkpt lat="48.63657" lon="1.68066">
        <ele>124.6</ele>
        <time>2025-03-20T08:40:26Z</time>
      </trkpt>
      <trkpt lat="48.63651" lon="1.68076">
        <ele>124.3</ele>
        <time>2025-03-20T08:40:35Z</time>
      </trkpt>
      <trkpt lat="48.63651" lon="1.68091">
        <ele>124</ele>
        <time>2025-03-20T08:40:44Z</time>
      </trkpt>
      <trkpt lat="48.63651" lon="1.68106">
        <ele>124</ele>
        <time>2025-03-20T08:40:52Z</time>
      </trkpt>
      <trkpt lat="48.63651" lon="1.6812">
        <ele>123.7</ele>
        <time>2025-03-20T08:40:59Z</time>
      </trkpt>
      <trkpt lat="48.63652" lon="1.68136">
        <ele>123.1</ele>
        <time>2025-03-20T08:41:07Z</time>
      </trkpt>
      <trkpt lat="48.63651" lon="1.68151">
        <ele>123.2</ele>
        <time>2025-03-20T08:41:15Z</time>
      </trkpt>
      <trkpt lat="48.63652" lon="1.68166">
        <ele>123.5</ele>
        <time>2025-03-20T08:41:23Z</time>
      </trkpt>
      <trkpt lat="48.63652" lon="1.6818">
        <ele>123.3</ele>
        <time>2025-03-20T08:41:30Z</time>
      </trkpt>
      <trkpt lat="48.63651" lon="1.68196">
        <ele>123</ele>
        <time>2025-03-20T08:41:38Z</time>
      </trkpt>
      <trkpt lat="48.63652" lon="1.6821">
        <ele>123</ele>
        <time>2025-03-20T08:41:45Z</time>
      </trkpt>
      <trkpt lat="48.63652" lon="1.68224">
        <ele>123</ele>
        <time>2025-03-20T08:41:52Z</time>
      </trkpt>
      <trkpt lat="48.63653" lon="1.68239">
        <ele>123</ele>
        <time>2025-03-20T08:41:59Z</time>
      </trkpt>
      <trkpt lat="48.63653" lon="1.68253">
        <ele>123</ele>
        <time>2025-03-20T08:42:06Z</time>
      </trkpt>
      <trkpt lat="48.63655" lon="1.68268">
        <ele>123</ele>
        <time>2025-03-20T08:42:13Z</time>
      </trkpt>
      <trkpt lat="48.63654" lon="1.68283">
        <ele>123</ele>
        <time>2025-03-20T08:42:20Z</time>
      </trkpt>
      <trkpt lat="48.63655" lon="1.68297">
        <ele>123</ele>
        <time>2025-03-20T08:42:26Z</time>
      </trkpt>
      <trkpt lat="48.63654" lon="1.68312">
        <ele>123</ele>
        <time>2025-03-20T08:42:33Z</time>
      </trkpt>
      <trkpt lat="48.63647" lon="1.68321">
        <ele>123</ele>
        <time>2025-03-20T08:42:40Z</time>
      </trkpt>
      <trkpt lat="48.63641" lon="1.68332">
        <ele>123</ele>
        <time>2025-03-20T08:42:47Z</time>
      </trkpt>
      <trkpt lat="48.63639" lon="1.68345">
        <ele>123</ele>
        <time>2025-03-20T08:42:54Z</time>
      </trkpt>
      <trkpt lat="48.6364" lon="1.6836">
        <ele>123</ele>
        <time>2025-03-20T08:43:01Z</time>
      </trkpt>
      <trkpt lat="48.63642" lon="1.68375">
        <ele>123</ele>
        <time>2025-03-20T08:43:08Z</time>
      </trkpt>
      <trkpt lat="48.63646" lon="1.68388">
        <ele>123</ele>
        <time>2025-03-20T08:43:15Z</time>
      </trkpt>
      <trkpt lat="48.63651" lon="1.68399">
        <ele>123</ele>
        <time>2025-03-20T08:43:22Z</time>
      </trkpt>
      <trkpt lat="48.63657" lon="1.68409">
        <ele>123</ele>
        <time>2025-03-20T08:43:29Z</time>
      </trkpt>
      <trkpt lat="48.63662" lon="1.68422">
        <ele>123</ele>
        <time>2025-03-20T08:43:37Z</time>
      </trkpt>
      <trkpt lat="48.63665" lon="1.68436">
        <ele>123</ele>
        <time>2025-03-20T08:43:44Z</time>
      </trkpt>
      <trkpt lat="48.6367" lon="1.68447">
        <ele>123.2</ele>
        <time>2025-03-20T08:43:51Z</time>
      </trkpt>
      <trkpt lat="48.63675" lon="1.6846">
        <ele>123.7</ele>
        <time>2025-03-20T08:43:59Z</time>
      </trkpt>
      <trkpt lat="48.63674" lon="1.68474">
        <ele>124</ele>
        <time>2025-03-20T08:44:06Z</time>
      </trkpt>
      <trkpt lat="48.63676" lon="1.6849">
        <ele>124.2</ele>
        <time>2025-03-20T08:44:13Z</time>
      </trkpt>
      <trkpt lat="48.63678" lon="1.68505">
        <ele>124.6</ele>
        <time>2025-03-20T08:44:20Z</time>
      </trkpt>
      <trkpt lat="48.6368" lon="1.68519">
        <ele>125.2</ele>
        <time>2025-03-20T08:44:27Z</time>
      </trkpt>
      <trkpt lat="48.63683" lon="1.68532">
        <ele>125.8</ele>
        <time>2025-03-20T08:44:34Z</time>
      </trkpt>
      <trkpt lat="48.63685" lon="1.68546">
        <ele>126.3</ele>
        <time>2025-03-20T08:44:42Z</time>
      </trkpt>
      <trkpt lat="48.63681" lon="1.68558">
        <ele>126.6</ele>
        <time>2025-03-20T08:44:49Z</time>
      </trkpt>
      <trkpt lat="48.63677" lon="1.68571">
        <ele>126.9</ele>
        <time>2025-03-20T08:44:56Z</time>
      </trkpt>
      <trkpt lat="48.63676" lon="1.68585">
        <ele>127.4</ele>
        <time>2025-03-20T08:45:03Z</time>
      </trkpt>
      <trkpt lat="48.63677" lon="1.68599">
        <ele>127.7</ele>
        <time>2025-03-20T08:45:09Z</time>
      </trkpt>
      <trkpt lat="48.63677" lon="1.68614">
        <ele>128</ele>
        <time>2025-03-20T08:45:16Z</time>
      </trkpt>
      <trkpt lat="48.63677" lon="1.6863">
        <ele>128.3</ele>
        <time>2025-03-20T08:45:24Z</time>
      </trkpt>
      <trkpt lat="48.63677" lon="1.68645">
        <ele>128.4</ele>
        <time>2025-03-20T08:45:31Z</time>
      </trkpt>
      <trkpt lat="48.63677" lon="1.68659">
        <ele>128.4</ele>
        <time>2025-03-20T08:45:37Z</time>
      </trkpt>
      <trkpt lat="48.63679" lon="1.68675">
        <ele>128.3</ele>
        <time>2025-03-20T08:45:44Z</time>
      </trkpt>
      <trkpt lat="48.6368" lon="1.68688">
        <ele>128.1</ele>
        <time>2025-03-20T08:45:50Z</time>
      </trkpt>
      <trkpt lat="48.63681" lon="1.68703">
        <ele>128</ele>
        <time>2025-03-20T08:45:56Z</time>
      </trkpt>
      <trkpt lat="48.63683" lon="1.68716">
        <ele>128</ele>
        <time>2025-03-20T08:46:02Z</time>
      </trkpt>
      <trkpt lat="48.63686" lon="1.68729">
        <ele>127.9</ele>
        <time>2025-03-20T08:46:08Z</time>
      </trkpt>
      <trkpt lat="48.63688" lon="1.68743">
        <ele>127.8</ele>
        <time>2025-03-20T08:46:14Z</time>
      </trkpt>
      <trkpt lat="48.63691" lon="1.68756">
        <ele>127.7</ele>
        <time>2025-03-20T08:46:20Z</time>
      </trkpt>
      <trkpt lat="48.63693" lon="1.68769">
        <ele>127.3</ele>
        <time>2025-03-20T08:46:26Z</time>
      </trkpt>
      <trkpt lat="48.63698" lon="1.68782">
        <ele>127.1</ele>
        <time>2025-03-20T08:46:33Z</time>
      </trkpt>
      <trkpt lat="48.63704" lon="1.68795">
        <ele>127.3</ele>
        <time>2025-03-20T08:46:40Z</time>
      </trkpt>
      <trkpt lat="48.63709" lon="1.68806">
        <ele>127.5</ele>
        <time>2025-03-20T08:46:46Z</time>
      </trkpt>
      <trkpt lat="48.63714" lon="1.6882">
        <ele>127.7</ele>
        <time>2025-03-20T08:46:53Z</time>
      </trkpt>
      <trkpt lat="48.63718" lon="1.68834">
        <ele>127.8</ele>
        <time>2025-03-20T08:47:00Z</time>
      </trkpt>
      <trkpt lat="48.63723" lon="1.68846">
        <ele>127.6</ele>
        <time>2025-03-20T08:47:06Z</time>
      </trkpt>
      <trkpt lat="48.63728" lon="1.68859">
        <ele>127.3</ele>
        <time>2025-03-20T08:47:13Z</time>
      </trkpt>
      <trkpt lat="48.63734" lon="1.68872">
        <ele>127.6</ele>
        <time>2025-03-20T08:47:20Z</time>
      </trkpt>
      <trkpt lat="48.63739" lon="1.68884">
        <ele>127.9</ele>
        <time>2025-03-20T08:47:27Z</time>
      </trkpt>
      <trkpt lat="48.63745" lon="1.68896">
        <ele>128</ele>
        <time>2025-03-20T08:47:34Z</time>
      </trkpt>
      <trkpt lat="48.63751" lon="1.68909">
        <ele>128</ele>
        <time>2025-03-20T08:47:41Z</time>
      </trkpt>
      <trkpt lat="48.63756" lon="1.68922">
        <ele>128</ele>
        <time>2025-03-20T08:47:48Z</time>
      </trkpt>
      <trkpt lat="48.63761" lon="1.68935">
        <ele>128</ele>
        <time>2025-03-20T08:47:55Z</time>
      </trkpt>
      <trkpt lat="48.63767" lon="1.68948">
        <ele>128</ele>
        <time>2025-03-20T08:48:02Z</time>
      </trkpt>
      <trkpt lat="48.63773" lon="1.6896">
        <ele>128</ele>
        <time>2025-03-20T08:48:09Z</time>
      </trkpt>
      <trkpt lat="48.63778" lon="1.68973">
        <ele>128</ele>
        <time>2025-03-20T08:48:16Z</time>
      </trkpt>
      <trkpt lat="48.63783" lon="1.68985">
        <ele>128.1</ele>
        <time>2025-03-20T08:48:23Z</time>
      </trkpt>
      <trkpt lat="48.63789" lon="1.68997">
        <ele>128</ele>
        <time>2025-03-20T08:48:30Z</time>
      </trkpt>
      <trkpt lat="48.63794" lon="1.6901">
        <ele>128.3</ele>
        <time>2025-03-20T08:48:37Z</time>
      </trkpt>
      <trkpt lat="48.63797" lon="1.69023">
        <ele>128.8</ele>
        <time>2025-03-20T08:48:44Z</time>
      </trkpt>
      <trkpt lat="48.63801" lon="1.69037">
        <ele>128.7</ele>
        <time>2025-03-20T08:48:52Z</time>
      </trkpt>
      <trkpt lat="48.63805" lon="1.6905">
        <ele>128.2</ele>
        <time>2025-03-20T08:48:59Z</time>
      </trkpt>
      <trkpt lat="48.63811" lon="1.69062">
        <ele>128.4</ele>
        <time>2025-03-20T08:49:06Z</time>
      </trkpt>
      <trkpt lat="48.63816" lon="1.69073">
        <ele>128.8</ele>
        <time>2025-03-20T08:49:13Z</time>
      </trkpt>
      <trkpt lat="48.63822" lon="1.69085">
        <ele>129</ele>
        <time>2025-03-20T08:49:20Z</time>
      </trkpt>
      <trkpt lat="48.63829" lon="1.69095">
        <ele>129</ele>
        <time>2025-03-20T08:49:27Z</time>
      </trkpt>
      <trkpt lat="48.63833" lon="1.69107">
        <ele>129</ele>
        <time>2025-03-20T08:49:37Z</time>
      </trkpt>
      <trkpt lat="48.63841" lon="1.69116">
        <ele>129.2</ele>
        <time>2025-03-20T08:49:46Z</time>
      </trkpt>
      <trkpt lat="48.63847" lon="1.69126">
        <ele>129.2</ele>
        <time>2025-03-20T08:49:55Z</time>
      </trkpt>
      <trkpt lat="48.63854" lon="1.69137">
        <ele>129.1</ele>
        <time>2025-03-20T08:50:03Z</time>
      </trkpt>
      <trkpt lat="48.63858" lon="1.69151">
        <ele>129.4</ele>
        <time>2025-03-20T08:50:12Z</time>
      </trkpt>
      <trkpt lat="48.63865" lon="1.6916">
        <ele>129.8</ele>
        <time>2025-03-20T08:50:20Z</time>
      </trkpt>
      <trkpt lat="48.63871" lon="1.69171">
        <ele>130</ele>
        <time>2025-03-20T08:50:26Z</time>
      </trkpt>
      <trkpt lat="48.63878" lon="1.69183">
        <ele>130</ele>
        <time>2025-03-20T08:50:34Z</time>
      </trkpt>
      <trkpt lat="48.63883" lon="1.69195">
        <ele>130</ele>
        <time>2025-03-20T08:50:41Z</time>
      </trkpt>
      <trkpt lat="48.63888" lon="1.69206">
        <ele>130.4</ele>
        <time>2025-03-20T08:50:47Z</time>
      </trkpt>
      <trkpt lat="48.63894" lon="1.69218">
        <ele>131.1</ele>
        <time>2025-03-20T08:50:54Z</time>
      </trkpt>
      <trkpt lat="48.639" lon="1.69232">
        <ele>131.4</ele>
        <time>2025-03-20T08:51:01Z</time>
      </trkpt>
      <trkpt lat="48.63904" lon="1.69245">
        <ele>131.5</ele>
        <time>2025-03-20T08:51:08Z</time>
      </trkpt>
      <trkpt lat="48.63908" lon="1.69258">
        <ele>131.7</ele>
        <time>2025-03-20T08:51:15Z</time>
      </trkpt>
      <trkpt lat="48.63912" lon="1.69272">
        <ele>131.8</ele>
        <time>2025-03-20T08:51:22Z</time>
      </trkpt>
      <trkpt lat="48.63916" lon="1.69286">
        <ele>132</ele>
        <time>2025-03-20T08:51:29Z</time>
      </trkpt>
      <trkpt lat="48.6392" lon="1.693">
        <ele>132.2</ele>
        <time>2025-03-20T08:51:36Z</time>
      </trkpt>
      <trkpt lat="48.63925" lon="1.69313">
        <ele>132.6</ele>
        <time>2025-03-20T08:51:42Z</time>
      </trkpt>
      <trkpt lat="48.63929" lon="1.69325">
        <ele>132.9</ele>
        <time>2025-03-20T08:51:48Z</time>
      </trkpt>
      <trkpt lat="48.63933" lon="1.69338">
        <ele>133.2</ele>
        <time>2025-03-20T08:51:54Z</time>
      </trkpt>
      <trkpt lat="48.63935" lon="1.69352">
        <ele>133.4</ele>
        <time>2025-03-20T08:52:01Z</time>
      </trkpt>
      <trkpt lat="48.63938" lon="1.69366">
        <ele>133.6</ele>
        <time>2025-03-20T08:52:08Z</time>
      </trkpt>
      <trkpt lat="48.63939" lon="1.69381">
        <ele>133.8</ele>
        <time>2025-03-20T08:52:15Z</time>
      </trkpt>
      <trkpt lat="48.63942" lon="1.69395">
        <ele>133.9</ele>
        <time>2025-03-20T08:52:22Z</time>
      </trkpt>
      <trkpt lat="48.63945" lon="1.6941">
        <ele>134</ele>
        <time>2025-03-20T08:52:29Z</time>
      </trkpt>
      <trkpt lat="48.63948" lon="1.69424">
        <ele>134.5</ele>
        <time>2025-03-20T08:52:36Z</time>
      </trkpt>
      <trkpt lat="48.63951" lon="1.69439">
        <ele>135.1</ele>
        <time>2025-03-20T08:52:43Z</time>
      </trkpt>
      <trkpt lat="48.63953" lon="1.69454">
        <ele>135.7</ele>
        <time>2025-03-20T08:52:50Z</time>
      </trkpt>
      <trkpt lat="48.63957" lon="1.69469">
        <ele>136.3</ele>
        <time>2025-03-20T08:52:58Z</time>
      </trkpt>
      <trkpt lat="48.63955" lon="1.69484">
        <ele>136.4</ele>
        <time>2025-03-20T08:53:05Z</time>
      </trkpt>
      <trkpt lat="48.63955" lon="1.69499">
        <ele>136.4</ele>
        <time>2025-03-20T08:53:12Z</time>
      </trkpt>
      <trkpt lat="48.63955" lon="1.69513">
        <ele>136.8</ele>
        <time>2025-03-20T08:53:18Z</time>
      </trkpt>
      <trkpt lat="48.63955" lon="1.69528">
        <ele>137.4</ele>
        <time>2025-03-20T08:53:25Z</time>
      </trkpt>
      <trkpt lat="48.63954" lon="1.69543">
        <ele>137.3</ele>
        <time>2025-03-20T08:53:32Z</time>
      </trkpt>
      <trkpt lat="48.63953" lon="1.69559">
        <ele>137.4</ele>
        <time>2025-03-20T08:53:39Z</time>
      </trkpt>
      <trkpt lat="48.63953" lon="1.69575">
        <ele>137.5</ele>
        <time>2025-03-20T08:53:46Z</time>
      </trkpt>
      <trkpt lat="48.63953" lon="1.69589">
        <ele>137.8</ele>
        <time>2025-03-20T08:53:52Z</time>
      </trkpt>
      <trkpt lat="48.63954" lon="1.69604">
        <ele>138.2</ele>
        <time>2025-03-20T08:53:59Z</time>
      </trkpt>
      <trkpt lat="48.63954" lon="1.6962">
        <ele>138.7</ele>
        <time>2025-03-20T08:54:06Z</time>
      </trkpt>
      <trkpt lat="48.63953" lon="1.69635">
        <ele>139.2</ele>
        <time>2025-03-20T08:54:13Z</time>
      </trkpt>
      <trkpt lat="48.6395" lon="1.6965">
        <ele>139.2</ele>
        <time>2025-03-20T08:54:21Z</time>
      </trkpt>
      <trkpt lat="48.63951" lon="1.69664">
        <ele>139.2</ele>
        <time>2025-03-20T08:54:28Z</time>
      </trkpt>
      <trkpt lat="48.63952" lon="1.69679">
        <ele>139.7</ele>
        <time>2025-03-20T08:54:35Z</time>
      </trkpt>
      <trkpt lat="48.63952" lon="1.69693">
        <ele>140.2</ele>
        <time>2025-03-20T08:54:42Z</time>
      </trkpt>
      <trkpt lat="48.63952" lon="1.69708">
        <ele>140.6</ele>
        <time>2025-03-20T08:54:49Z</time>
      </trkpt>
      <trkpt lat="48.63952" lon="1.69722">
        <ele>141</ele>
        <time>2025-03-20T08:54:56Z</time>
      </trkpt>
      <trkpt lat="48.63952" lon="1.69737">
        <ele>141.5</ele>
        <time>2025-03-20T08:55:03Z</time>
      </trkpt>
      <trkpt lat="48.63951" lon="1.69751">
        <ele>142</ele>
        <time>2025-03-20T08:55:10Z</time>
      </trkpt>
      <trkpt lat="48.63949" lon="1.69766">
        <ele>142.1</ele>
        <time>2025-03-20T08:55:17Z</time>
      </trkpt>
      <trkpt lat="48.63943" lon="1.69779">
        <ele>142</ele>
        <time>2025-03-20T08:55:24Z</time>
      </trkpt>
      <trkpt lat="48.63936" lon="1.69789">
        <ele>142.1</ele>
        <time>2025-03-20T08:55:31Z</time>
      </trkpt>
      <trkpt lat="48.63928" lon="1.69797">
        <ele>142.1</ele>
        <time>2025-03-20T08:55:37Z</time>
      </trkpt>
      <trkpt lat="48.6392" lon="1.69804">
        <ele>142.1</ele>
        <time>2025-03-20T08:55:43Z</time>
      </trkpt>
      <trkpt lat="48.63911" lon="1.69809">
        <ele>141.7</ele>
        <time>2025-03-20T08:55:49Z</time>
      </trkpt>
      <trkpt lat="48.63903" lon="1.69816">
        <ele>141.4</ele>
        <time>2025-03-20T08:55:55Z</time>
      </trkpt>
      <trkpt lat="48.63895" lon="1.69824">
        <ele>141.1</ele>
        <time>2025-03-20T08:56:01Z</time>
      </trkpt>
      <trkpt lat="48.63887" lon="1.69833">
        <ele>140.9</ele>
        <time>2025-03-20T08:56:08Z</time>
      </trkpt>
      <trkpt lat="48.63878" lon="1.69842">
        <ele>141.1</ele>
        <time>2025-03-20T08:56:20Z</time>
      </trkpt>
      <trkpt lat="48.6387" lon="1.69851">
        <ele>141.1</ele>
        <time>2025-03-20T08:56:28Z</time>
      </trkpt>
      <trkpt lat="48.63861" lon="1.69859">
        <ele>140.9</ele>
        <time>2025-03-20T08:56:35Z</time>
      </trkpt>
      <trkpt lat="48.63853" lon="1.69869">
        <ele>141.2</ele>
        <time>2025-03-20T08:56:41Z</time>
      </trkpt>
      <trkpt lat="48.63845" lon="1.69877">
        <ele>141.6</ele>
        <time>2025-03-20T08:56:47Z</time>
      </trkpt>
      <trkpt lat="48.63837" lon="1.69886">
        <ele>141.9</ele>
        <time>2025-03-20T08:56:54Z</time>
      </trkpt>
      <trkpt lat="48.63828" lon="1.69893">
        <ele>142.1</ele>
        <time>2025-03-20T08:57:01Z</time>
      </trkpt>
      <trkpt lat="48.63819" lon="1.69898">
        <ele>142.3</ele>
        <time>2025-03-20T08:57:07Z</time>
      </trkpt>
      <trkpt lat="48.6381" lon="1.69905">
        <ele>142.8</ele>
        <time>2025-03-20T08:57:14Z</time>
      </trkpt>
      <trkpt lat="48.63801" lon="1.69912">
        <ele>143.1</ele>
        <time>2025-03-20T08:57:21Z</time>
      </trkpt>
      <trkpt lat="48.63792" lon="1.69919">
        <ele>142.8</ele>
        <time>2025-03-20T08:57:28Z</time>
      </trkpt>
      <trkpt lat="48.63783" lon="1.69926">
        <ele>142.9</ele>
        <time>2025-03-20T08:57:34Z</time>
      </trkpt>
      <trkpt lat="48.63775" lon="1.69934">
        <ele>143.3</ele>
        <time>2025-03-20T08:57:41Z</time>
      </trkpt>
      <trkpt lat="48.63766" lon="1.6994">
        <ele>143.4</ele>
        <time>2025-03-20T08:57:47Z</time>
      </trkpt>
      <trkpt lat="48.63757" lon="1.69946">
        <ele>143</ele>
        <time>2025-03-20T08:57:54Z</time>
      </trkpt>
      <trkpt lat="48.63749" lon="1.69955">
        <ele>143.4</ele>
        <time>2025-03-20T08:58:01Z</time>
      </trkpt>
      <trkpt lat="48.63741" lon="1.69964">
        <ele>143.5</ele>
        <time>2025-03-20T08:58:08Z</time>
      </trkpt>
      <trkpt lat="48.63735" lon="1.69976">
        <ele>143.5</ele>
        <time>2025-03-20T08:58:15Z</time>
      </trkpt>
      <trkpt lat="48.63729" lon="1.69987">
        <ele>143.4</ele>
        <time>2025-03-20T08:58:22Z</time>
      </trkpt>
      <trkpt lat="48.63721" lon="1.69996">
        <ele>142.6</ele>
        <time>2025-03-20T08:58:29Z</time>
      </trkpt>
      <trkpt lat="48.63711" lon="1.69991">
        <ele>141.7</ele>
        <time>2025-03-20T08:58:36Z</time>
      </trkpt>
      <trkpt lat="48.63703" lon="1.69982">
        <ele>140.8</ele>
        <time>2025-03-20T08:58:42Z</time>
      </trkpt>
      <trkpt lat="48.63694" lon="1.69976">
        <ele>140.2</ele>
        <time>2025-03-20T08:58:49Z</time>
      </trkpt>
      <trkpt lat="48.63685" lon="1.6997">
        <ele>141</ele>
        <time>2025-03-20T08:58:55Z</time>
      </trkpt>
      <trkpt lat="48.63678" lon="1.69962">
        <ele>141.6</ele>
        <time>2025-03-20T08:59:02Z</time>
      </trkpt>
      <trkpt lat="48.63669" lon="1.69961">
        <ele>142.4</ele>
        <time>2025-03-20T08:59:09Z</time>
      </trkpt>
      <trkpt lat="48.63659" lon="1.69958">
        <ele>142.3</ele>
        <time>2025-03-20T08:59:19Z</time>
      </trkpt>
      <trkpt lat="48.6365" lon="1.69951">
        <ele>141.8</ele>
        <time>2025-03-20T08:59:29Z</time>
      </trkpt>
      <trkpt lat="48.63645" lon="1.69941">
        <ele>141.2</ele>
        <time>2025-03-20T08:59:36Z</time>
      </trkpt>
      <trkpt lat="48.63638" lon="1.69932">
        <ele>141</ele>
        <time>2025-03-20T08:59:43Z</time>
      </trkpt>
      <trkpt lat="48.63628" lon="1.69926">
        <ele>141.4</ele>
        <time>2025-03-20T08:59:50Z</time>
      </trkpt>
      <trkpt lat="48.63621" lon="1.69917">
        <ele>141.7</ele>
        <time>2025-03-20T08:59:58Z</time>
      </trkpt>
      <trkpt lat="48.63612" lon="1.69913">
        <ele>141.8</ele>
        <time>2025-03-20T09:00:06Z</time>
      </trkpt>
      <trkpt lat="48.63607" lon="1.69925">
        <ele>142.2</ele>
        <time>2025-03-20T09:00:13Z</time>
      </trkpt>
      <trkpt lat="48.63601" lon="1.69937">
        <ele>142.6</ele>
        <time>2025-03-20T09:00:20Z</time>
      </trkpt>
      <trkpt lat="48.63595" lon="1.69948">
        <ele>143.1</ele>
        <time>2025-03-20T09:00:27Z</time>
      </trkpt>
      <trkpt lat="48.63587" lon="1.69957">
        <ele>143.3</ele>
        <time>2025-03-20T09:00:34Z</time>
      </trkpt>
      <trkpt lat="48.63582" lon="1.6997">
        <ele>143.2</ele>
        <time>2025-03-20T09:00:41Z</time>
      </trkpt>
      <trkpt lat="48.63577" lon="1.69983">
        <ele>143.8</ele>
        <time>2025-03-20T09:00:49Z</time>
      </trkpt>
      <trkpt lat="48.63575" lon="1.69998">
        <ele>144.2</ele>
        <time>2025-03-20T09:00:56Z</time>
      </trkpt>
      <trkpt lat="48.63575" lon="1.70012">
        <ele>144.6</ele>
        <time>2025-03-20T09:01:03Z</time>
      </trkpt>
      <trkpt lat="48.63573" lon="1.70027">
        <ele>145</ele>
        <time>2025-03-20T09:01:11Z</time>
      </trkpt>
      <trkpt lat="48.63571" lon="1.70042">
        <ele>145.5</ele>
        <time>2025-03-20T09:01:19Z</time>
      </trkpt>
      <trkpt lat="48.63576" lon="1.70055">
        <ele>146</ele>
        <time>2025-03-20T09:01:27Z</time>
      </trkpt>
      <trkpt lat="48.63571" lon="1.70068">
        <ele>146.8</ele>
        <time>2025-03-20T09:01:34Z</time>
      </trkpt>
      <trkpt lat="48.63564" lon="1.70077">
        <ele>147.9</ele>
        <time>2025-03-20T09:01:42Z</time>
      </trkpt>
      <trkpt lat="48.63558" lon="1.70089">
        <ele>149.4</ele>
        <time>2025-03-20T09:01:51Z</time>
      </trkpt>
      <trkpt lat="48.63555" lon="1.70102">
        <ele>151</ele>
        <time>2025-03-20T09:02:02Z</time>
      </trkpt>
      <trkpt lat="48.6355" lon="1.70115">
        <ele>151.6</ele>
        <time>2025-03-20T09:02:11Z</time>
      </trkpt>
      <trkpt lat="48.63546" lon="1.70128">
        <ele>152</ele>
        <time>2025-03-20T09:02:22Z</time>
      </trkpt>
      <trkpt lat="48.63545" lon="1.70142">
        <ele>152.7</ele>
        <time>2025-03-20T09:02:33Z</time>
      </trkpt>
      <trkpt lat="48.63544" lon="1.70157">
        <ele>153</ele>
        <time>2025-03-20T09:02:42Z</time>
      </trkpt>
      <trkpt lat="48.63538" lon="1.7017">
        <ele>153.9</ele>
        <time>2025-03-20T09:02:52Z</time>
      </trkpt>
      <trkpt lat="48.63533" lon="1.70183">
        <ele>154.8</ele>
        <time>2025-03-20T09:03:00Z</time>
      </trkpt>
      <trkpt lat="48.63529" lon="1.70196">
        <ele>155.8</ele>
        <time>2025-03-20T09:03:09Z</time>
      </trkpt>
      <trkpt lat="48.63524" lon="1.70208">
        <ele>155.9</ele>
        <time>2025-03-20T09:03:17Z</time>
      </trkpt>
      <trkpt lat="48.63523" lon="1.70222">
        <ele>156.1</ele>
        <time>2025-03-20T09:03:25Z</time>
      </trkpt>
      <trkpt lat="48.63521" lon="1.70235">
        <ele>156.4</ele>
        <time>2025-03-20T09:03:33Z</time>
      </trkpt>
      <trkpt lat="48.6352" lon="1.70249">
        <ele>156.6</ele>
        <time>2025-03-20T09:03:41Z</time>
      </trkpt>
      <trkpt lat="48.6352" lon="1.70263">
        <ele>156.4</ele>
        <time>2025-03-20T09:03:49Z</time>
      </trkpt>
      <trkpt lat="48.63522" lon="1.70277">
        <ele>156.2</ele>
        <time>2025-03-20T09:03:58Z</time>
      </trkpt>
      <trkpt lat="48.63521" lon="1.70292">
        <ele>155.9</ele>
        <time>2025-03-20T09:04:07Z</time>
      </trkpt>
      <trkpt lat="48.63524" lon="1.70305">
        <ele>155.3</ele>
        <time>2025-03-20T09:04:17Z</time>
      </trkpt>
      <trkpt lat="48.6352" lon="1.70319">
        <ele>155.2</ele>
        <time>2025-03-20T09:04:29Z</time>
      </trkpt>
      <trkpt lat="48.63512" lon="1.70326">
        <ele>155.8</ele>
        <time>2025-03-20T09:04:36Z</time>
      </trkpt>
      <trkpt lat="48.63504" lon="1.70334">
        <ele>156.5</ele>
        <time>2025-03-20T09:04:43Z</time>
      </trkpt>
      <trkpt lat="48.63496" lon="1.70342">
        <ele>156.9</ele>
        <time>2025-03-20T09:04:50Z</time>
      </trkpt>
      <trkpt lat="48.63487" lon="1.7035">
        <ele>157.7</ele>
        <time>2025-03-20T09:04:58Z</time>
      </trkpt>
      <trkpt lat="48.6348" lon="1.70357">
        <ele>158.8</ele>
        <time>2025-03-20T09:05:05Z</time>
      </trkpt>
      <trkpt lat="48.63472" lon="1.70365">
        <ele>159.9</ele>
        <time>2025-03-20T09:05:12Z</time>
      </trkpt>
      <trkpt lat="48.63464" lon="1.70373">
        <ele>160.3</ele>
        <time>2025-03-20T09:05:21Z</time>
      </trkpt>
      <trkpt lat="48.63456" lon="1.7038">
        <ele>160.9</ele>
        <time>2025-03-20T09:05:29Z</time>
      </trkpt>
      <trkpt lat="48.63446" lon="1.70382">
        <ele>161.8</ele>
        <time>2025-03-20T09:05:37Z</time>
      </trkpt>
      <trkpt lat="48.63445" lon="1.70367">
        <ele>162</ele>
        <time>2025-03-20T09:05:50Z</time>
      </trkpt>
      <trkpt lat="48.63449" lon="1.70354">
        <ele>161.4</ele>
        <time>2025-03-20T09:05:57Z</time>
      </trkpt>
      <trkpt lat="48.63447" lon="1.70368">
        <ele>161.8</ele>
        <time>2025-03-20T09:07:02Z</time>
      </trkpt>
      <trkpt lat="48.63437" lon="1.70368">
        <ele>162.5</ele>
        <time>2025-03-20T09:08:01Z</time>
      </trkpt>
      <trkpt lat="48.63436" lon="1.70354">
        <ele>162.3</ele>
        <time>2025-03-20T09:08:08Z</time>
      </trkpt>
      <trkpt lat="48.63434" lon="1.70339">
        <ele>161.7</ele>
        <time>2025-03-20T09:08:16Z</time>
      </trkpt>
      <trkpt lat="48.63431" lon="1.70326">
        <ele>161.1</ele>
        <time>2025-03-20T09:08:23Z</time>
      </trkpt>
      <trkpt lat="48.63428" lon="1.70312">
        <ele>160.5</ele>
        <time>2025-03-20T09:08:29Z</time>
      </trkpt>
      <trkpt lat="48.63426" lon="1.70298">
        <ele>160.1</ele>
        <time>2025-03-20T09:08:35Z</time>
      </trkpt>
      <trkpt lat="48.63423" lon="1.70283">
        <ele>159.7</ele>
        <time>2025-03-20T09:08:42Z</time>
      </trkpt>
      <trkpt lat="48.6342" lon="1.70269">
        <ele>159.4</ele>
        <time>2025-03-20T09:08:49Z</time>
      </trkpt>
      <trkpt lat="48.63417" lon="1.70254">
        <ele>159.1</ele>
        <time>2025-03-20T09:08:56Z</time>
      </trkpt>
      <trkpt lat="48.63414" lon="1.7024">
        <ele>158.8</ele>
        <time>2025-03-20T09:09:03Z</time>
      </trkpt>
      <trkpt lat="48.63412" lon="1.70225">
        <ele>158.4</ele>
        <time>2025-03-20T09:09:10Z</time>
      </trkpt>
      <trkpt lat="48.63409" lon="1.70211">
        <ele>158.9</ele>
        <time>2025-03-20T09:09:17Z</time>
      </trkpt>
      <trkpt lat="48.63406" lon="1.70197">
        <ele>159.3</ele>
        <time>2025-03-20T09:09:25Z</time>
      </trkpt>
      <trkpt lat="48.63404" lon="1.70183">
        <ele>159.6</ele>
        <time>2025-03-20T09:09:32Z</time>
      </trkpt>
      <trkpt lat="48.63401" lon="1.70169">
        <ele>160.1</ele>
        <time>2025-03-20T09:09:39Z</time>
      </trkpt>
      <trkpt lat="48.634" lon="1.70153">
        <ele>160.4</ele>
        <time>2025-03-20T09:09:47Z</time>
      </trkpt>
      <trkpt lat="48.63398" lon="1.7014">
        <ele>160.7</ele>
        <time>2025-03-20T09:09:54Z</time>
      </trkpt>
      <trkpt lat="48.63394" lon="1.70126">
        <ele>161.2</ele>
        <time>2025-03-20T09:10:00Z</time>
      </trkpt>
      <trkpt lat="48.6339" lon="1.70112">
        <ele>161.9</ele>
        <time>2025-03-20T09:10:07Z</time>
      </trkpt>
      <trkpt lat="48.63388" lon="1.70098">
        <ele>161.6</ele>
        <time>2025-03-20T09:10:14Z</time>
      </trkpt>
      <trkpt lat="48.63386" lon="1.70084">
        <ele>161.1</ele>
        <time>2025-03-20T09:10:21Z</time>
      </trkpt>
      <trkpt lat="48.63383" lon="1.70069">
        <ele>160.8</ele>
        <time>2025-03-20T09:10:28Z</time>
      </trkpt>
      <trkpt lat="48.6338" lon="1.70054">
        <ele>160.6</ele>
        <time>2025-03-20T09:10:35Z</time>
      </trkpt>
      <trkpt lat="48.63377" lon="1.7004">
        <ele>160.3</ele>
        <time>2025-03-20T09:10:41Z</time>
      </trkpt>
      <trkpt lat="48.63374" lon="1.70026">
        <ele>160</ele>
        <time>2025-03-20T09:10:47Z</time>
      </trkpt>
      <trkpt lat="48.63372" lon="1.70011">
        <ele>159.4</ele>
        <time>2025-03-20T09:10:54Z</time>
      </trkpt>
      <trkpt lat="48.63368" lon="1.69998">
        <ele>159.1</ele>
        <time>2025-03-20T09:11:00Z</time>
      </trkpt>
      <trkpt lat="48.63365" lon="1.69985">
        <ele>158.5</ele>
        <time>2025-03-20T09:11:06Z</time>
      </trkpt>
      <trkpt lat="48.63363" lon="1.69972">
        <ele>157.8</ele>
        <time>2025-03-20T09:11:12Z</time>
      </trkpt>
      <trkpt lat="48.6336" lon="1.69958">
        <ele>157</ele>
        <time>2025-03-20T09:11:18Z</time>
      </trkpt>
      <trkpt lat="48.63358" lon="1.69945">
        <ele>156.4</ele>
        <time>2025-03-20T09:11:24Z</time>
      </trkpt>
      <trkpt lat="48.63355" lon="1.6993">
        <ele>157.2</ele>
        <time>2025-03-20T09:11:31Z</time>
      </trkpt>
      <trkpt lat="48.63352" lon="1.69916">
        <ele>158.1</ele>
        <time>2025-03-20T09:11:39Z</time>
      </trkpt>
      <trkpt lat="48.63348" lon="1.69903">
        <ele>159.2</ele>
        <time>2025-03-20T09:11:47Z</time>
      </trkpt>
      <trkpt lat="48.63344" lon="1.6989">
        <ele>160.2</ele>
        <time>2025-03-20T09:11:54Z</time>
      </trkpt>
      <trkpt lat="48.63343" lon="1.69875">
        <ele>160.3</ele>
        <time>2025-03-20T09:12:02Z</time>
      </trkpt>
      <trkpt lat="48.63339" lon="1.69863">
        <ele>160.6</ele>
        <time>2025-03-20T09:12:09Z</time>
      </trkpt>
      <trkpt lat="48.63333" lon="1.6985">
        <ele>160.6</ele>
        <time>2025-03-20T09:12:17Z</time>
      </trkpt>
      <trkpt lat="48.63328" lon="1.69838">
        <ele>160.3</ele>
        <time>2025-03-20T09:12:24Z</time>
      </trkpt>
      <trkpt lat="48.63323" lon="1.69824">
        <ele>160</ele>
        <time>2025-03-20T09:12:31Z</time>
      </trkpt>
      <trkpt lat="48.63318" lon="1.69813">
        <ele>159.8</ele>
        <time>2025-03-20T09:12:38Z</time>
      </trkpt>
      <trkpt lat="48.63312" lon="1.69802">
        <ele>159.7</ele>
        <time>2025-03-20T09:12:44Z</time>
      </trkpt>
      <trkpt lat="48.63306" lon="1.69792">
        <ele>159.5</ele>
        <time>2025-03-20T09:12:50Z</time>
      </trkpt>
      <trkpt lat="48.633" lon="1.69779">
        <ele>159</ele>
        <time>2025-03-20T09:12:57Z</time>
      </trkpt>
      <trkpt lat="48.63294" lon="1.69767">
        <ele>158.4</ele>
        <time>2025-03-20T09:13:03Z</time>
      </trkpt>
      <trkpt lat="48.63288" lon="1.69754">
        <ele>157.8</ele>
        <time>2025-03-20T09:13:10Z</time>
      </trkpt>
      <trkpt lat="48.63283" lon="1.69741">
        <ele>157.7</ele>
        <time>2025-03-20T09:13:17Z</time>
      </trkpt>
      <trkpt lat="48.63277" lon="1.69729">
        <ele>158.1</ele>
        <time>2025-03-20T09:13:24Z</time>
      </trkpt>
      <trkpt lat="48.63272" lon="1.69716">
        <ele>158.2</ele>
        <time>2025-03-20T09:13:31Z</time>
      </trkpt>
      <trkpt lat="48.63267" lon="1.69705">
        <ele>158</ele>
        <time>2025-03-20T09:13:37Z</time>
      </trkpt>
      <trkpt lat="48.63261" lon="1.69694">
        <ele>157.8</ele>
        <time>2025-03-20T09:13:44Z</time>
      </trkpt>
      <trkpt lat="48.63255" lon="1.69681">
        <ele>158</ele>
        <time>2025-03-20T09:13:51Z</time>
      </trkpt>
      <trkpt lat="48.6325" lon="1.6967">
        <ele>158.2</ele>
        <time>2025-03-20T09:13:57Z</time>
      </trkpt>
      <trkpt lat="48.63242" lon="1.69661">
        <ele>159.1</ele>
        <time>2025-03-20T09:14:04Z</time>
      </trkpt>
      <trkpt lat="48.63236" lon="1.69651">
        <ele>160.1</ele>
        <time>2025-03-20T09:14:10Z</time>
      </trkpt>
      <trkpt lat="48.63228" lon="1.69643">
        <ele>161.3</ele>
        <time>2025-03-20T09:14:17Z</time>
      </trkpt>
      <trkpt lat="48.63221" lon="1.69634">
        <ele>162.1</ele>
        <time>2025-03-20T09:14:25Z</time>
      </trkpt>
      <trkpt lat="48.63214" lon="1.69626">
        <ele>162.5</ele>
        <time>2025-03-20T09:14:33Z</time>
      </trkpt>
      <trkpt lat="48.63207" lon="1.69616">
        <ele>163</ele>
        <time>2025-03-20T09:14:40Z</time>
      </trkpt>
      <trkpt lat="48.63199" lon="1.69606">
        <ele>163.7</ele>
        <time>2025-03-20T09:14:48Z</time>
      </trkpt>
      <trkpt lat="48.63192" lon="1.69598">
        <ele>164</ele>
        <time>2025-03-20T09:14:55Z</time>
      </trkpt>
      <trkpt lat="48.63183" lon="1.69588">
        <ele>164</ele>
        <time>2025-03-20T09:15:02Z</time>
      </trkpt>
      <trkpt lat="48.63177" lon="1.69578">
        <ele>164</ele>
        <time>2025-03-20T09:15:09Z</time>
      </trkpt>
      <trkpt lat="48.6317" lon="1.6957">
        <ele>164</ele>
        <time>2025-03-20T09:15:16Z</time>
      </trkpt>
      <trkpt lat="48.63162" lon="1.69561">
        <ele>164</ele>
        <time>2025-03-20T09:15:23Z</time>
      </trkpt>
      <trkpt lat="48.63154" lon="1.69553">
        <ele>164</ele>
        <time>2025-03-20T09:15:30Z</time>
      </trkpt>
      <trkpt lat="48.63145" lon="1.69544">
        <ele>164</ele>
        <time>2025-03-20T09:15:37Z</time>
      </trkpt>
      <trkpt lat="48.63138" lon="1.69535">
        <ele>164</ele>
        <time>2025-03-20T09:15:45Z</time>
      </trkpt>
      <trkpt lat="48.6313" lon="1.69526">
        <ele>164</ele>
        <time>2025-03-20T09:15:53Z</time>
      </trkpt>
      <trkpt lat="48.63122" lon="1.69517">
        <ele>164.2</ele>
        <time>2025-03-20T09:15:59Z</time>
      </trkpt>
      <trkpt lat="48.63114" lon="1.69508">
        <ele>164.1</ele>
        <time>2025-03-20T09:16:06Z</time>
      </trkpt>
      <trkpt lat="48.63107" lon="1.69498">
        <ele>163.8</ele>
        <time>2025-03-20T09:16:13Z</time>
      </trkpt>
      <trkpt lat="48.63098" lon="1.6949">
        <ele>163.4</ele>
        <time>2025-03-20T09:16:20Z</time>
      </trkpt>
      <trkpt lat="48.63089" lon="1.69486">
        <ele>162.8</ele>
        <time>2025-03-20T09:16:27Z</time>
      </trkpt>
      <trkpt lat="48.63083" lon="1.69476">
        <ele>162.1</ele>
        <time>2025-03-20T09:16:34Z</time>
      </trkpt>
      <trkpt lat="48.63079" lon="1.69462">
        <ele>161.8</ele>
        <time>2025-03-20T09:16:41Z</time>
      </trkpt>
      <trkpt lat="48.63075" lon="1.69448">
        <ele>161.4</ele>
        <time>2025-03-20T09:16:48Z</time>
      </trkpt>
      <trkpt lat="48.63073" lon="1.69433">
        <ele>160.7</ele>
        <time>2025-03-20T09:16:55Z</time>
      </trkpt>
      <trkpt lat="48.6307" lon="1.6942">
        <ele>159.8</ele>
        <time>2025-03-20T09:17:02Z</time>
      </trkpt>
      <trkpt lat="48.6307" lon="1.69405">
        <ele>158.7</ele>
        <time>2025-03-20T09:17:09Z</time>
      </trkpt>
      <trkpt lat="48.6307" lon="1.6939">
        <ele>157.8</ele>
        <time>2025-03-20T09:17:16Z</time>
      </trkpt>
      <trkpt lat="48.63071" lon="1.69375">
        <ele>156.7</ele>
        <time>2025-03-20T09:17:23Z</time>
      </trkpt>
      <trkpt lat="48.63071" lon="1.69361">
        <ele>155.8</ele>
        <time>2025-03-20T09:17:30Z</time>
      </trkpt>
      <trkpt lat="48.63072" lon="1.69346">
        <ele>155.1</ele>
        <time>2025-03-20T09:17:37Z</time>
      </trkpt>
      <trkpt lat="48.63073" lon="1.69331">
        <ele>154.3</ele>
        <time>2025-03-20T09:17:45Z</time>
      </trkpt>
      <trkpt lat="48.63074" lon="1.69316">
        <ele>153.2</ele>
        <time>2025-03-20T09:17:53Z</time>
      </trkpt>
      <trkpt lat="48.63075" lon="1.693">
        <ele>152.2</ele>
        <time>2025-03-20T09:18:01Z</time>
      </trkpt>
      <trkpt lat="48.63078" lon="1.69286">
        <ele>151.7</ele>
        <time>2025-03-20T09:18:08Z</time>
      </trkpt>
      <trkpt lat="48.63079" lon="1.69272">
        <ele>151</ele>
        <time>2025-03-20T09:18:15Z</time>
      </trkpt>
      <trkpt lat="48.63081" lon="1.69257">
        <ele>150.2</ele>
        <time>2025-03-20T09:18:22Z</time>
      </trkpt>
      <trkpt lat="48.63082" lon="1.69241">
        <ele>149.2</ele>
        <time>2025-03-20T09:18:30Z</time>
      </trkpt>
      <trkpt lat="48.63084" lon="1.69227">
        <ele>148.4</ele>
        <time>2025-03-20T09:18:37Z</time>
      </trkpt>
      <trkpt lat="48.63084" lon="1.69213">
        <ele>147.4</ele>
        <time>2025-03-20T09:18:44Z</time>
      </trkpt>
      <trkpt lat="48.63086" lon="1.69198">
        <ele>146.4</ele>
        <time>2025-03-20T09:18:51Z</time>
      </trkpt>
      <trkpt lat="48.63088" lon="1.69184">
        <ele>145.9</ele>
        <time>2025-03-20T09:18:58Z</time>
      </trkpt>
      <trkpt lat="48.6309" lon="1.6917">
        <ele>145.4</ele>
        <time>2025-03-20T09:19:05Z</time>
      </trkpt>
      <trkpt lat="48.6309" lon="1.69155">
        <ele>144.8</ele>
        <time>2025-03-20T09:19:12Z</time>
      </trkpt>
      <trkpt lat="48.63092" lon="1.6914">
        <ele>144.3</ele>
        <time>2025-03-20T09:19:20Z</time>
      </trkpt>
      <trkpt lat="48.63093" lon="1.69126">
        <ele>143.9</ele>
        <time>2025-03-20T09:19:27Z</time>
      </trkpt>
      <trkpt lat="48.63095" lon="1.69112">
        <ele>143.5</ele>
        <time>2025-03-20T09:19:35Z</time>
      </trkpt>
      <trkpt lat="48.63098" lon="1.69097">
        <ele>143</ele>
        <time>2025-03-20T09:19:43Z</time>
      </trkpt>
      <trkpt lat="48.63101" lon="1.69083">
        <ele>142.6</ele>
        <time>2025-03-20T09:19:50Z</time>
      </trkpt>
      <trkpt lat="48.63105" lon="1.6907">
        <ele>142.2</ele>
        <time>2025-03-20T09:19:57Z</time>
      </trkpt>
      <trkpt lat="48.63108" lon="1.69057">
        <ele>141.8</ele>
        <time>2025-03-20T09:20:04Z</time>
      </trkpt>
      <trkpt lat="48.63112" lon="1.69043">
        <ele>141.5</ele>
        <time>2025-03-20T09:20:12Z</time>
      </trkpt>
      <trkpt lat="48.63117" lon="1.6903">
        <ele>141.1</ele>
        <time>2025-03-20T09:20:19Z</time>
      </trkpt>
      <trkpt lat="48.63121" lon="1.69017">
        <ele>140.4</ele>
        <time>2025-03-20T09:20:27Z</time>
      </trkpt>
      <trkpt lat="48.63114" lon="1.69007">
        <ele>139.6</ele>
        <time>2025-03-20T09:20:38Z</time>
      </trkpt>
      <trkpt lat="48.63103" lon="1.69005">
        <ele>138.8</ele>
        <time>2025-03-20T09:20:45Z</time>
      </trkpt>
      <trkpt lat="48.63094" lon="1.68999">
        <ele>137.7</ele>
        <time>2025-03-20T09:20:52Z</time>
      </trkpt>
      <trkpt lat="48.63086" lon="1.68993">
        <ele>136.9</ele>
        <time>2025-03-20T09:20:59Z</time>
      </trkpt>
      <trkpt lat="48.63078" lon="1.68984">
        <ele>136.6</ele>
        <time>2025-03-20T09:21:06Z</time>
      </trkpt>
      <trkpt lat="48.63071" lon="1.68974">
        <ele>136.5</ele>
        <time>2025-03-20T09:21:14Z</time>
      </trkpt>
      <trkpt lat="48.63067" lon="1.68962">
        <ele>136.4</ele>
        <time>2025-03-20T09:21:29Z</time>
      </trkpt>
      <trkpt lat="48.63059" lon="1.68955">
        <ele>136.8</ele>
        <time>2025-03-20T09:21:38Z</time>
      </trkpt>
      <trkpt lat="48.63049" lon="1.68949">
        <ele>137.4</ele>
        <time>2025-03-20T09:21:47Z</time>
      </trkpt>
      <trkpt lat="48.6304" lon="1.68949">
        <ele>138.2</ele>
        <time>2025-03-20T09:21:56Z</time>
      </trkpt>
      <trkpt lat="48.63031" lon="1.68954">
        <ele>138.8</ele>
        <time>2025-03-20T09:22:04Z</time>
      </trkpt>
      <trkpt lat="48.63022" lon="1.6896">
        <ele>140.1</ele>
        <time>2025-03-20T09:22:13Z</time>
      </trkpt>
      <trkpt lat="48.63014" lon="1.68953">
        <ele>141.6</ele>
        <time>2025-03-20T09:22:20Z</time>
      </trkpt>
      <trkpt lat="48.63005" lon="1.68947">
        <ele>143</ele>
        <time>2025-03-20T09:22:27Z</time>
      </trkpt>
      <trkpt lat="48.62997" lon="1.68951">
        <ele>144.6</ele>
        <time>2025-03-20T09:22:35Z</time>
      </trkpt>
      <trkpt lat="48.62987" lon="1.68949">
        <ele>146.4</ele>
        <time>2025-03-20T09:22:44Z</time>
      </trkpt>
      <trkpt lat="48.62979" lon="1.68941">
        <ele>147.9</ele>
        <time>2025-03-20T09:22:52Z</time>
      </trkpt>
      <trkpt lat="48.6297" lon="1.68937">
        <ele>149.8</ele>
        <time>2025-03-20T09:23:01Z</time>
      </trkpt>
      <trkpt lat="48.6296" lon="1.68935">
        <ele>151.8</ele>
        <time>2025-03-20T09:23:11Z</time>
      </trkpt>
      <trkpt lat="48.6295" lon="1.68932">
        <ele>153.8</ele>
        <time>2025-03-20T09:23:21Z</time>
      </trkpt>
      <trkpt lat="48.62942" lon="1.68938">
        <ele>155.3</ele>
        <time>2025-03-20T09:23:31Z</time>
      </trkpt>
      <trkpt lat="48.62934" lon="1.68932">
        <ele>156.2</ele>
        <time>2025-03-20T09:23:41Z</time>
      </trkpt>
      <trkpt lat="48.62928" lon="1.6892">
        <ele>156.8</ele>
        <time>2025-03-20T09:23:49Z</time>
      </trkpt>
      <trkpt lat="48.62923" lon="1.68907">
        <ele>157.4</ele>
        <time>2025-03-20T09:23:58Z</time>
      </trkpt>
      <trkpt lat="48.62917" lon="1.68894">
        <ele>158</ele>
        <time>2025-03-20T09:24:07Z</time>
      </trkpt>
      <trkpt lat="48.62911" lon="1.68883">
        <ele>158.2</ele>
        <time>2025-03-20T09:24:15Z</time>
      </trkpt>
      <trkpt lat="48.62908" lon="1.68869">
        <ele>158.3</ele>
        <time>2025-03-20T09:24:23Z</time>
      </trkpt>
      <trkpt lat="48.62901" lon="1.68858">
        <ele>158.6</ele>
        <time>2025-03-20T09:24:30Z</time>
      </trkpt>
      <trkpt lat="48.62899" lon="1.68844">
        <ele>158.8</ele>
        <time>2025-03-20T09:24:36Z</time>
      </trkpt>
      <trkpt lat="48.62898" lon="1.68829">
        <ele>158.8</ele>
        <time>2025-03-20T09:24:44Z</time>
      </trkpt>
      <trkpt lat="48.62892" lon="1.68817">
        <ele>159</ele>
        <time>2025-03-20T09:24:52Z</time>
      </trkpt>
      <trkpt lat="48.62892" lon="1.68802">
        <ele>158.4</ele>
        <time>2025-03-20T09:24:59Z</time>
      </trkpt>
      <trkpt lat="48.6289" lon="1.68788">
        <ele>158.2</ele>
        <time>2025-03-20T09:25:08Z</time>
      </trkpt>
      <trkpt lat="48.62888" lon="1.68774">
        <ele>158</ele>
        <time>2025-03-20T09:25:16Z</time>
      </trkpt>
      <trkpt lat="48.62879" lon="1.68769">
        <ele>157.9</ele>
        <time>2025-03-20T09:25:24Z</time>
      </trkpt>
      <trkpt lat="48.6287" lon="1.68762">
        <ele>157.6</ele>
        <time>2025-03-20T09:25:31Z</time>
      </trkpt>
      <trkpt lat="48.62863" lon="1.68754">
        <ele>157.2</ele>
        <time>2025-03-20T09:25:38Z</time>
      </trkpt>
      <trkpt lat="48.62858" lon="1.68741">
        <ele>155.8</ele>
        <time>2025-03-20T09:25:45Z</time>
      </trkpt>
      <trkpt lat="48.62855" lon="1.68727">
        <ele>153.8</ele>
        <time>2025-03-20T09:25:52Z</time>
      </trkpt>
      <trkpt lat="48.62847" lon="1.68736">
        <ele>153.2</ele>
        <time>2025-03-20T09:26:03Z</time>
      </trkpt>
      <trkpt lat="48.62842" lon="1.68748">
        <ele>154</ele>
        <time>2025-03-20T09:26:19Z</time>
      </trkpt>
      <trkpt lat="48.62837" lon="1.68761">
        <ele>154.3</ele>
        <time>2025-03-20T09:26:28Z</time>
      </trkpt>
      <trkpt lat="48.62832" lon="1.68774">
        <ele>154.3</ele>
        <time>2025-03-20T09:26:37Z</time>
      </trkpt>
      <trkpt lat="48.62826" lon="1.68786">
        <ele>154.3</ele>
        <time>2025-03-20T09:26:45Z</time>
      </trkpt>
      <trkpt lat="48.62821" lon="1.68799">
        <ele>154.8</ele>
        <time>2025-03-20T09:26:52Z</time>
      </trkpt>
      <trkpt lat="48.62813" lon="1.68809">
        <ele>154.6</ele>
        <time>2025-03-20T09:26:59Z</time>
      </trkpt>
      <trkpt lat="48.62805" lon="1.6882">
        <ele>154.5</ele>
        <time>2025-03-20T09:27:06Z</time>
      </trkpt>
      <trkpt lat="48.628" lon="1.68833">
        <ele>154.6</ele>
        <time>2025-03-20T09:27:12Z</time>
      </trkpt>
      <trkpt lat="48.62794" lon="1.68846">
        <ele>155.1</ele>
        <time>2025-03-20T09:27:18Z</time>
      </trkpt>
      <trkpt lat="48.62789" lon="1.68859">
        <ele>156.5</ele>
        <time>2025-03-20T09:27:25Z</time>
      </trkpt>
      <trkpt lat="48.62784" lon="1.68872">
        <ele>156.4</ele>
        <time>2025-03-20T09:27:31Z</time>
      </trkpt>
      <trkpt lat="48.62778" lon="1.68885">
        <ele>156</ele>
        <time>2025-03-20T09:27:38Z</time>
      </trkpt>
      <trkpt lat="48.62772" lon="1.68896">
        <ele>155.6</ele>
        <time>2025-03-20T09:27:45Z</time>
      </trkpt>
      <trkpt lat="48.62767" lon="1.68909">
        <ele>156.7</ele>
        <time>2025-03-20T09:27:52Z</time>
      </trkpt>
      <trkpt lat="48.62763" lon="1.68923">
        <ele>157.2</ele>
        <time>2025-03-20T09:27:59Z</time>
      </trkpt>
      <trkpt lat="48.6276" lon="1.68937">
        <ele>156.5</ele>
        <time>2025-03-20T09:28:06Z</time>
      </trkpt>
      <trkpt lat="48.62756" lon="1.68951">
        <ele>156.2</ele>
        <time>2025-03-20T09:28:13Z</time>
      </trkpt>
      <trkpt lat="48.62753" lon="1.68965">
        <ele>156.7</ele>
        <time>2025-03-20T09:28:20Z</time>
      </trkpt>
      <trkpt lat="48.6275" lon="1.6898">
        <ele>157</ele>
        <time>2025-03-20T09:28:27Z</time>
      </trkpt>
      <trkpt lat="48.62749" lon="1.68995">
        <ele>156.8</ele>
        <time>2025-03-20T09:28:34Z</time>
      </trkpt>
      <trkpt lat="48.62752" lon="1.69008">
        <ele>158.1</ele>
        <time>2025-03-20T09:28:41Z</time>
      </trkpt>
      <trkpt lat="48.62757" lon="1.69021">
        <ele>159.1</ele>
        <time>2025-03-20T09:28:48Z</time>
      </trkpt>
      <trkpt lat="48.6276" lon="1.69034">
        <ele>159.3</ele>
        <time>2025-03-20T09:28:55Z</time>
      </trkpt>
      <trkpt lat="48.62761" lon="1.69049">
        <ele>159.3</ele>
        <time>2025-03-20T09:29:02Z</time>
      </trkpt>
      <trkpt lat="48.62755" lon="1.69059">
        <ele>160.2</ele>
        <time>2025-03-20T09:29:10Z</time>
      </trkpt>
      <trkpt lat="48.62757" lon="1.69073">
        <ele>159.3</ele>
        <time>2025-03-20T09:29:16Z</time>
      </trkpt>
      <trkpt lat="48.62757" lon="1.69087">
        <ele>158.9</ele>
        <time>2025-03-20T09:29:22Z</time>
      </trkpt>
      <trkpt lat="48.62755" lon="1.69102">
        <ele>158.1</ele>
        <time>2025-03-20T09:29:29Z</time>
      </trkpt>
      <trkpt lat="48.62751" lon="1.69115">
        <ele>157.3</ele>
        <time>2025-03-20T09:29:35Z</time>
      </trkpt>
      <trkpt lat="48.62748" lon="1.69127">
        <ele>158</ele>
        <time>2025-03-20T09:29:41Z</time>
      </trkpt>
      <trkpt lat="48.62743" lon="1.69139">
        <ele>158.8</ele>
        <time>2025-03-20T09:29:47Z</time>
      </trkpt>
      <trkpt lat="48.62738" lon="1.69152">
        <ele>159</ele>
        <time>2025-03-20T09:29:54Z</time>
      </trkpt>
      <trkpt lat="48.62733" lon="1.69164">
        <ele>158.3</ele>
        <time>2025-03-20T09:30:00Z</time>
      </trkpt>
      <trkpt lat="48.62726" lon="1.69174">
        <ele>158.2</ele>
        <time>2025-03-20T09:30:07Z</time>
      </trkpt>
      <trkpt lat="48.62719" lon="1.69186">
        <ele>159.2</ele>
        <time>2025-03-20T09:30:14Z</time>
      </trkpt>
      <trkpt lat="48.62712" lon="1.69196">
        <ele>159.6</ele>
        <time>2025-03-20T09:30:21Z</time>
      </trkpt>
      <trkpt lat="48.62705" lon="1.69206">
        <ele>158.7</ele>
        <time>2025-03-20T09:30:28Z</time>
      </trkpt>
      <trkpt lat="48.627" lon="1.69219">
        <ele>157.6</ele>
        <time>2025-03-20T09:30:35Z</time>
      </trkpt>
      <trkpt lat="48.62692" lon="1.69229">
        <ele>157.1</ele>
        <time>2025-03-20T09:30:42Z</time>
      </trkpt>
      <trkpt lat="48.62682" lon="1.69225">
        <ele>157.2</ele>
        <time>2025-03-20T09:30:49Z</time>
      </trkpt>
      <trkpt lat="48.62674" lon="1.69216">
        <ele>157.3</ele>
        <time>2025-03-20T09:30:55Z</time>
      </trkpt>
      <trkpt lat="48.62669" lon="1.69204">
        <ele>157.7</ele>
        <time>2025-03-20T09:31:01Z</time>
      </trkpt>
      <trkpt lat="48.62662" lon="1.69193">
        <ele>158.8</ele>
        <time>2025-03-20T09:31:08Z</time>
      </trkpt>
      <trkpt lat="48.62654" lon="1.69185">
        <ele>160.4</ele>
        <time>2025-03-20T09:31:14Z</time>
      </trkpt>
      <trkpt lat="48.62646" lon="1.69179">
        <ele>161.1</ele>
        <time>2025-03-20T09:31:21Z</time>
      </trkpt>
      <trkpt lat="48.62639" lon="1.69168">
        <ele>161.1</ele>
        <time>2025-03-20T09:31:29Z</time>
      </trkpt>
      <trkpt lat="48.62633" lon="1.69156">
        <ele>160.8</ele>
        <time>2025-03-20T09:31:36Z</time>
      </trkpt>
      <trkpt lat="48.62624" lon="1.69154">
        <ele>160.5</ele>
        <time>2025-03-20T09:31:43Z</time>
      </trkpt>
      <trkpt lat="48.62616" lon="1.69163">
        <ele>160.8</ele>
        <time>2025-03-20T09:31:50Z</time>
      </trkpt>
      <trkpt lat="48.62609" lon="1.69175">
        <ele>160.7</ele>
        <time>2025-03-20T09:31:57Z</time>
      </trkpt>
      <trkpt lat="48.62603" lon="1.69186">
        <ele>160</ele>
        <time>2025-03-20T09:32:03Z</time>
      </trkpt>
      <trkpt lat="48.62598" lon="1.692">
        <ele>159.7</ele>
        <time>2025-03-20T09:32:10Z</time>
      </trkpt>
      <trkpt lat="48.62592" lon="1.69211">
        <ele>159.7</ele>
        <time>2025-03-20T09:32:17Z</time>
      </trkpt>
      <trkpt lat="48.62586" lon="1.69224">
        <ele>160.1</ele>
        <time>2025-03-20T09:32:24Z</time>
      </trkpt>
      <trkpt lat="48.6258" lon="1.69237">
        <ele>159.9</ele>
        <time>2025-03-20T09:32:31Z</time>
      </trkpt>
      <trkpt lat="48.62575" lon="1.69249">
        <ele>159.5</ele>
        <time>2025-03-20T09:32:38Z</time>
      </trkpt>
      <trkpt lat="48.6257" lon="1.69262">
        <ele>159.8</ele>
        <time>2025-03-20T09:32:45Z</time>
      </trkpt>
      <trkpt lat="48.6256" lon="1.69261">
        <ele>158.5</ele>
        <time>2025-03-20T09:32:54Z</time>
      </trkpt>
      <trkpt lat="48.62552" lon="1.69253">
        <ele>156.7</ele>
        <time>2025-03-20T09:33:01Z</time>
      </trkpt>
      <trkpt lat="48.62544" lon="1.69245">
        <ele>156.2</ele>
        <time>2025-03-20T09:33:08Z</time>
      </trkpt>
      <trkpt lat="48.62537" lon="1.69234">
        <ele>154.5</ele>
        <time>2025-03-20T09:33:16Z</time>
      </trkpt>
      <trkpt lat="48.62532" lon="1.69224">
        <ele>151.9</ele>
        <time>2025-03-20T09:33:27Z</time>
      </trkpt>
      <trkpt lat="48.62523" lon="1.69219">
        <ele>151</ele>
        <time>2025-03-20T09:33:54Z</time>
      </trkpt>
      <trkpt lat="48.62514" lon="1.69216">
        <ele>151.1</ele>
        <time>2025-03-20T09:34:02Z</time>
      </trkpt>
      <trkpt lat="48.62506" lon="1.6921">
        <ele>150.7</ele>
        <time>2025-03-20T09:34:09Z</time>
      </trkpt>
      <trkpt lat="48.62498" lon="1.69201">
        <ele>149.6</ele>
        <time>2025-03-20T09:34:18Z</time>
      </trkpt>
      <trkpt lat="48.62489" lon="1.69193">
        <ele>148.5</ele>
        <time>2025-03-20T09:34:27Z</time>
      </trkpt>
      <trkpt lat="48.62482" lon="1.69185">
        <ele>147.7</ele>
        <time>2025-03-20T09:34:35Z</time>
      </trkpt>
      <trkpt lat="48.62475" lon="1.69174">
        <ele>146.6</ele>
        <time>2025-03-20T09:34:43Z</time>
      </trkpt>
      <trkpt lat="48.62468" lon="1.69163">
        <ele>145.5</ele>
        <time>2025-03-20T09:34:50Z</time>
      </trkpt>
      <trkpt lat="48.62462" lon="1.69151">
        <ele>144.3</ele>
        <time>2025-03-20T09:34:57Z</time>
      </trkpt>
      <trkpt lat="48.62456" lon="1.69139">
        <ele>143.4</ele>
        <time>2025-03-20T09:35:03Z</time>
      </trkpt>
      <trkpt lat="48.6245" lon="1.69128">
        <ele>142.1</ele>
        <time>2025-03-20T09:35:09Z</time>
      </trkpt>
      <trkpt lat="48.62445" lon="1.69116">
        <ele>140.5</ele>
        <time>2025-03-20T09:35:15Z</time>
      </trkpt>
      <trkpt lat="48.6244" lon="1.69103">
        <ele>139.4</ele>
        <time>2025-03-20T09:35:21Z</time>
      </trkpt>
      <trkpt lat="48.62436" lon="1.6909">
        <ele>138.5</ele>
        <time>2025-03-20T09:35:27Z</time>
      </trkpt>
      <trkpt lat="48.62433" lon="1.69077">
        <ele>137.8</ele>
        <time>2025-03-20T09:35:33Z</time>
      </trkpt>
      <trkpt lat="48.62431" lon="1.69063">
        <ele>137.3</ele>
        <time>2025-03-20T09:35:39Z</time>
      </trkpt>
      <trkpt lat="48.62427" lon="1.69048">
        <ele>136.6</ele>
        <time>2025-03-20T09:35:46Z</time>
      </trkpt>
      <trkpt lat="48.62425" lon="1.69033">
        <ele>135.6</ele>
        <time>2025-03-20T09:35:53Z</time>
      </trkpt>
      <trkpt lat="48.62422" lon="1.69019">
        <ele>134.8</ele>
        <time>2025-03-20T09:36:00Z</time>
      </trkpt>
      <trkpt lat="48.6242" lon="1.69003">
        <ele>134.1</ele>
        <time>2025-03-20T09:36:07Z</time>
      </trkpt>
      <trkpt lat="48.62418" lon="1.68989">
        <ele>133.6</ele>
        <time>2025-03-20T09:36:14Z</time>
      </trkpt>
      <trkpt lat="48.62415" lon="1.68974">
        <ele>133</ele>
        <time>2025-03-20T09:36:21Z</time>
      </trkpt>
      <trkpt lat="48.62413" lon="1.6896">
        <ele>132.5</ele>
        <time>2025-03-20T09:36:28Z</time>
      </trkpt>
      <trkpt lat="48.62405" lon="1.68967">
        <ele>132.7</ele>
        <time>2025-03-20T09:36:36Z</time>
      </trkpt>
      <trkpt lat="48.62401" lon="1.6898">
        <ele>133.1</ele>
        <time>2025-03-20T09:36:42Z</time>
      </trkpt>
      <trkpt lat="48.62395" lon="1.68992">
        <ele>133.2</ele>
        <time>2025-03-20T09:36:48Z</time>
      </trkpt>
      <trkpt lat="48.62389" lon="1.69002">
        <ele>133.2</ele>
        <time>2025-03-20T09:36:54Z</time>
      </trkpt>
      <trkpt lat="48.62384" lon="1.69014">
        <ele>133.6</ele>
        <time>2025-03-20T09:37:00Z</time>
      </trkpt>
      <trkpt lat="48.62378" lon="1.69025">
        <ele>133.7</ele>
        <time>2025-03-20T09:37:06Z</time>
      </trkpt>
      <trkpt lat="48.62372" lon="1.69036">
        <ele>133.3</ele>
        <time>2025-03-20T09:37:12Z</time>
      </trkpt>
      <trkpt lat="48.62366" lon="1.69047">
        <ele>133.1</ele>
        <time>2025-03-20T09:37:18Z</time>
      </trkpt>
      <trkpt lat="48.6236" lon="1.69057">
        <ele>133</ele>
        <time>2025-03-20T09:37:24Z</time>
      </trkpt>
      <trkpt lat="48.62353" lon="1.69068">
        <ele>132.9</ele>
        <time>2025-03-20T09:37:31Z</time>
      </trkpt>
      <trkpt lat="48.62346" lon="1.69059">
        <ele>132</ele>
        <time>2025-03-20T09:37:52Z</time>
      </trkpt>
      <trkpt lat="48.62337" lon="1.69055">
        <ele>131.3</ele>
        <time>2025-03-20T09:38:00Z</time>
      </trkpt>
      <trkpt lat="48.62329" lon="1.69048">
        <ele>130.6</ele>
        <time>2025-03-20T09:38:07Z</time>
      </trkpt>
      <trkpt lat="48.62321" lon="1.69039">
        <ele>130.2</ele>
        <time>2025-03-20T09:38:14Z</time>
      </trkpt>
      <trkpt lat="48.62314" lon="1.69031">
        <ele>130</ele>
        <time>2025-03-20T09:38:20Z</time>
      </trkpt>
      <trkpt lat="48.62306" lon="1.69022">
        <ele>129.8</ele>
        <time>2025-03-20T09:38:27Z</time>
      </trkpt>
      <trkpt lat="48.62298" lon="1.69015">
        <ele>129.4</ele>
        <time>2025-03-20T09:38:34Z</time>
      </trkpt>
      <trkpt lat="48.62291" lon="1.69006">
        <ele>129.1</ele>
        <time>2025-03-20T09:38:41Z</time>
      </trkpt>
      <trkpt lat="48.62283" lon="1.68997">
        <ele>129</ele>
        <time>2025-03-20T09:38:48Z</time>
      </trkpt>
      <trkpt lat="48.62275" lon="1.68989">
        <ele>129</ele>
        <time>2025-03-20T09:38:54Z</time>
      </trkpt>
      <trkpt lat="48.62267" lon="1.68981">
        <ele>129</ele>
        <time>2025-03-20T09:39:01Z</time>
      </trkpt>
      <trkpt lat="48.62258" lon="1.68973">
        <ele>129</ele>
        <time>2025-03-20T09:39:08Z</time>
      </trkpt>
      <trkpt lat="48.62249" lon="1.68963">
        <ele>129</ele>
        <time>2025-03-20T09:39:15Z</time>
      </trkpt>
      <trkpt lat="48.62241" lon="1.68954">
        <ele>129</ele>
        <time>2025-03-20T09:39:22Z</time>
      </trkpt>
      <trkpt lat="48.62233" lon="1.68945">
        <ele>129</ele>
        <time>2025-03-20T09:39:29Z</time>
      </trkpt>
      <trkpt lat="48.62226" lon="1.68936">
        <ele>129</ele>
        <time>2025-03-20T09:39:35Z</time>
      </trkpt>
      <trkpt lat="48.62217" lon="1.68927">
        <ele>129.2</ele>
        <time>2025-03-20T09:39:42Z</time>
      </trkpt>
      <trkpt lat="48.62209" lon="1.68919">
        <ele>129.5</ele>
        <time>2025-03-20T09:39:49Z</time>
      </trkpt>
      <trkpt lat="48.62201" lon="1.6891">
        <ele>130</ele>
        <time>2025-03-20T09:39:56Z</time>
      </trkpt>
      <trkpt lat="48.62192" lon="1.68901">
        <ele>130.6</ele>
        <time>2025-03-20T09:40:03Z</time>
      </trkpt>
      <trkpt lat="48.62184" lon="1.68892">
        <ele>130.9</ele>
        <time>2025-03-20T09:40:10Z</time>
      </trkpt>
      <trkpt lat="48.62176" lon="1.68884">
        <ele>131</ele>
        <time>2025-03-20T09:40:17Z</time>
      </trkpt>
      <trkpt lat="48.62168" lon="1.68875">
        <ele>131</ele>
        <time>2025-03-20T09:40:24Z</time>
      </trkpt>
      <trkpt lat="48.6216" lon="1.68865">
        <ele>131.5</ele>
        <time>2025-03-20T09:40:31Z</time>
      </trkpt>
      <trkpt lat="48.62152" lon="1.68856">
        <ele>132.2</ele>
        <time>2025-03-20T09:40:38Z</time>
      </trkpt>
      <trkpt lat="48.62144" lon="1.68848">
        <ele>132.7</ele>
        <time>2025-03-20T09:40:45Z</time>
      </trkpt>
      <trkpt lat="48.62135" lon="1.6884">
        <ele>133.2</ele>
        <time>2025-03-20T09:40:52Z</time>
      </trkpt>
      <trkpt lat="48.62127" lon="1.68832">
        <ele>133.8</ele>
        <time>2025-03-20T09:40:59Z</time>
      </trkpt>
      <trkpt lat="48.62119" lon="1.68824">
        <ele>134.4</ele>
        <time>2025-03-20T09:41:06Z</time>
      </trkpt>
      <trkpt lat="48.62111" lon="1.68816">
        <ele>135</ele>
        <time>2025-03-20T09:41:13Z</time>
      </trkpt>
      <trkpt lat="48.62102" lon="1.68808">
        <ele>135.6</ele>
        <time>2025-03-20T09:41:20Z</time>
      </trkpt>
      <trkpt lat="48.62094" lon="1.68801">
        <ele>136.4</ele>
        <time>2025-03-20T09:41:27Z</time>
      </trkpt>
      <trkpt lat="48.62086" lon="1.68793">
        <ele>137.3</ele>
        <time>2025-03-20T09:41:34Z</time>
      </trkpt>
      <trkpt lat="48.62077" lon="1.68786">
        <ele>138.4</ele>
        <time>2025-03-20T09:41:41Z</time>
      </trkpt>
      <trkpt lat="48.62069" lon="1.68779">
        <ele>139.5</ele>
        <time>2025-03-20T09:41:48Z</time>
      </trkpt>
      <trkpt lat="48.62061" lon="1.68773">
        <ele>140.7</ele>
        <time>2025-03-20T09:41:55Z</time>
      </trkpt>
      <trkpt lat="48.62053" lon="1.68766">
        <ele>142.2</ele>
        <time>2025-03-20T09:42:02Z</time>
      </trkpt>
      <trkpt lat="48.62043" lon="1.68758">
        <ele>143.7</ele>
        <time>2025-03-20T09:42:10Z</time>
      </trkpt>
      <trkpt lat="48.62035" lon="1.68753">
        <ele>145</ele>
        <time>2025-03-20T09:42:17Z</time>
      </trkpt>
      <trkpt lat="48.62026" lon="1.68747">
        <ele>146.3</ele>
        <time>2025-03-20T09:42:28Z</time>
      </trkpt>
      <trkpt lat="48.62017" lon="1.68739">
        <ele>147.3</ele>
        <time>2025-03-20T09:42:37Z</time>
      </trkpt>
      <trkpt lat="48.62009" lon="1.68733">
        <ele>148.3</ele>
        <time>2025-03-20T09:42:44Z</time>
      </trkpt>
      <trkpt lat="48.62001" lon="1.68726">
        <ele>149.6</ele>
        <time>2025-03-20T09:42:52Z</time>
      </trkpt>
      <trkpt lat="48.61992" lon="1.68719">
        <ele>150.7</ele>
        <time>2025-03-20T09:43:00Z</time>
      </trkpt>
      <trkpt lat="48.61984" lon="1.68714">
        <ele>151.6</ele>
        <time>2025-03-20T09:43:08Z</time>
      </trkpt>
      <trkpt lat="48.61975" lon="1.68707">
        <ele>152.4</ele>
        <time>2025-03-20T09:43:16Z</time>
      </trkpt>
      <trkpt lat="48.61966" lon="1.68701">
        <ele>153.2</ele>
        <time>2025-03-20T09:43:25Z</time>
      </trkpt>
      <trkpt lat="48.61958" lon="1.68695">
        <ele>154</ele>
        <time>2025-03-20T09:43:33Z</time>
      </trkpt>
      <trkpt lat="48.61949" lon="1.68689">
        <ele>155</ele>
        <time>2025-03-20T09:43:42Z</time>
      </trkpt>
      <trkpt lat="48.61941" lon="1.68682">
        <ele>156.1</ele>
        <time>2025-03-20T09:43:50Z</time>
      </trkpt>
      <trkpt lat="48.61932" lon="1.68677">
        <ele>156.9</ele>
        <time>2025-03-20T09:43:57Z</time>
      </trkpt>
      <trkpt lat="48.61923" lon="1.6867">
        <ele>157.6</ele>
        <time>2025-03-20T09:44:05Z</time>
      </trkpt>
      <trkpt lat="48.61915" lon="1.68662">
        <ele>158.1</ele>
        <time>2025-03-20T09:44:13Z</time>
      </trkpt>
      <trkpt lat="48.61908" lon="1.68652">
        <ele>158.7</ele>
        <time>2025-03-20T09:44:21Z</time>
      </trkpt>
      <trkpt lat="48.61901" lon="1.68644">
        <ele>159.2</ele>
        <time>2025-03-20T09:44:29Z</time>
      </trkpt>
      <trkpt lat="48.61893" lon="1.68636">
        <ele>159.7</ele>
        <time>2025-03-20T09:44:39Z</time>
      </trkpt>
      <trkpt lat="48.61886" lon="1.68626">
        <ele>160</ele>
        <time>2025-03-20T09:44:50Z</time>
      </trkpt>
      <trkpt lat="48.61879" lon="1.68617">
        <ele>160</ele>
        <time>2025-03-20T09:45:00Z</time>
      </trkpt>
      <trkpt lat="48.61872" lon="1.68609">
        <ele>160</ele>
        <time>2025-03-20T09:45:11Z</time>
      </trkpt>
      <trkpt lat="48.61864" lon="1.686">
        <ele>160</ele>
        <time>2025-03-20T09:45:41Z</time>
      </trkpt>
      <trkpt lat="48.61856" lon="1.68593">
        <ele>160</ele>
        <time>2025-03-20T09:50:56Z</time>
      </trkpt>
      <trkpt lat="48.61848" lon="1.68586">
        <ele>160</ele>
        <time>2025-03-20T09:51:04Z</time>
      </trkpt>
      <trkpt lat="48.6184" lon="1.68578">
        <ele>159.8</ele>
        <time>2025-03-20T09:51:12Z</time>
      </trkpt>
      <trkpt lat="48.61831" lon="1.68569">
        <ele>159.5</ele>
        <time>2025-03-20T09:51:19Z</time>
      </trkpt>
      <trkpt lat="48.61824" lon="1.6856">
        <ele>159.2</ele>
        <time>2025-03-20T09:51:26Z</time>
      </trkpt>
      <trkpt lat="48.61817" lon="1.68551">
        <ele>159</ele>
        <time>2025-03-20T09:51:33Z</time>
      </trkpt>
      <trkpt lat="48.61809" lon="1.68543">
        <ele>159</ele>
        <time>2025-03-20T09:51:40Z</time>
      </trkpt>
      <trkpt lat="48.61801" lon="1.68535">
        <ele>159</ele>
        <time>2025-03-20T09:51:47Z</time>
      </trkpt>
      <trkpt lat="48.61794" lon="1.68526">
        <ele>159</ele>
        <time>2025-03-20T09:51:54Z</time>
      </trkpt>
      <trkpt lat="48.61786" lon="1.68517">
        <ele>159</ele>
        <time>2025-03-20T09:52:01Z</time>
      </trkpt>
      <trkpt lat="48.61778" lon="1.6851">
        <ele>159</ele>
        <time>2025-03-20T09:52:08Z</time>
      </trkpt>
      <trkpt lat="48.61771" lon="1.685">
        <ele>159</ele>
        <time>2025-03-20T09:52:15Z</time>
      </trkpt>
      <trkpt lat="48.61763" lon="1.68491">
        <ele>159</ele>
        <time>2025-03-20T09:52:22Z</time>
      </trkpt>
      <trkpt lat="48.61755" lon="1.68482">
        <ele>159</ele>
        <time>2025-03-20T09:52:29Z</time>
      </trkpt>
      <trkpt lat="48.61747" lon="1.68475">
        <ele>158.9</ele>
        <time>2025-03-20T09:52:35Z</time>
      </trkpt>
      <trkpt lat="48.61739" lon="1.68466">
        <ele>158.6</ele>
        <time>2025-03-20T09:52:42Z</time>
      </trkpt>
      <trkpt lat="48.61731" lon="1.68456">
        <ele>158.3</ele>
        <time>2025-03-20T09:52:49Z</time>
      </trkpt>
      <trkpt lat="48.61723" lon="1.68447">
        <ele>158</ele>
        <time>2025-03-20T09:52:56Z</time>
      </trkpt>
      <trkpt lat="48.61714" lon="1.68439">
        <ele>158</ele>
        <time>2025-03-20T09:53:03Z</time>
      </trkpt>
      <trkpt lat="48.61706" lon="1.68429">
        <ele>158</ele>
        <time>2025-03-20T09:53:10Z</time>
      </trkpt>
      <trkpt lat="48.61698" lon="1.6842">
        <ele>158</ele>
        <time>2025-03-20T09:53:17Z</time>
      </trkpt>
      <trkpt lat="48.61691" lon="1.68411">
        <ele>158</ele>
        <time>2025-03-20T09:53:24Z</time>
      </trkpt>
      <trkpt lat="48.61684" lon="1.68401">
        <ele>158</ele>
        <time>2025-03-20T09:53:31Z</time>
      </trkpt>
      <trkpt lat="48.61679" lon="1.68389">
        <ele>158</ele>
        <time>2025-03-20T09:53:40Z</time>
      </trkpt>
      <trkpt lat="48.61673" lon="1.68378">
        <ele>158</ele>
        <time>2025-03-20T09:53:49Z</time>
      </trkpt>
      <trkpt lat="48.61666" lon="1.68368">
        <ele>158</ele>
        <time>2025-03-20T09:54:00Z</time>
      </trkpt>
      <trkpt lat="48.61657" lon="1.68364">
        <ele>158</ele>
        <time>2025-03-20T09:54:08Z</time>
      </trkpt>
      <trkpt lat="48.61649" lon="1.68355">
        <ele>158</ele>
        <time>2025-03-20T09:54:19Z</time>
      </trkpt>
      <trkpt lat="48.61648" lon="1.68341">
        <ele>158</ele>
        <time>2025-03-20T09:54:28Z</time>
      </trkpt>
      <trkpt lat="48.6164" lon="1.68335">
        <ele>158</ele>
        <time>2025-03-20T09:54:42Z</time>
      </trkpt>
      <trkpt lat="48.61636" lon="1.68348">
        <ele>158</ele>
        <time>2025-03-20T09:55:12Z</time>
      </trkpt>
      <trkpt lat="48.61627" lon="1.68342">
        <ele>158</ele>
        <time>2025-03-20T09:55:23Z</time>
      </trkpt>
      <trkpt lat="48.61623" lon="1.68329">
        <ele>158</ele>
        <time>2025-03-20T09:55:32Z</time>
      </trkpt>
      <trkpt lat="48.61614" lon="1.68323">
        <ele>158</ele>
        <time>2025-03-20T09:55:39Z</time>
      </trkpt>
      <trkpt lat="48.61607" lon="1.68314">
        <ele>158</ele>
        <time>2025-03-20T09:55:46Z</time>
      </trkpt>
      <trkpt lat="48.61599" lon="1.68307">
        <ele>158</ele>
        <time>2025-03-20T09:55:53Z</time>
      </trkpt>
      <trkpt lat="48.61591" lon="1.68299">
        <ele>158</ele>
        <time>2025-03-20T09:56:01Z</time>
      </trkpt>
      <trkpt lat="48.61584" lon="1.68291">
        <ele>158</ele>
        <time>2025-03-20T09:56:08Z</time>
      </trkpt>
      <trkpt lat="48.61577" lon="1.68281">
        <ele>158.2</ele>
        <time>2025-03-20T09:56:16Z</time>
      </trkpt>
      <trkpt lat="48.61571" lon="1.68269">
        <ele>158.6</ele>
        <time>2025-03-20T09:56:23Z</time>
      </trkpt>
      <trkpt lat="48.61568" lon="1.68255">
        <ele>158.9</ele>
        <time>2025-03-20T09:56:31Z</time>
      </trkpt>
      <trkpt lat="48.61564" lon="1.68241">
        <ele>159</ele>
        <time>2025-03-20T09:56:39Z</time>
      </trkpt>
      <trkpt lat="48.6156" lon="1.68229">
        <ele>159</ele>
        <time>2025-03-20T09:56:47Z</time>
      </trkpt>
      <trkpt lat="48.61552" lon="1.68219">
        <ele>158.8</ele>
        <time>2025-03-20T09:56:54Z</time>
      </trkpt>
      <trkpt lat="48.61545" lon="1.6821">
        <ele>158.7</ele>
        <time>2025-03-20T09:57:01Z</time>
      </trkpt>
      <trkpt lat="48.61539" lon="1.68198">
        <ele>158.8</ele>
        <time>2025-03-20T09:57:09Z</time>
      </trkpt>
      <trkpt lat="48.61533" lon="1.68186">
        <ele>159.9</ele>
        <time>2025-03-20T09:57:17Z</time>
      </trkpt>
      <trkpt lat="48.61524" lon="1.68192">
        <ele>160.2</ele>
        <time>2025-03-20T09:57:25Z</time>
      </trkpt>
      <trkpt lat="48.61515" lon="1.68199">
        <ele>160.2</ele>
        <time>2025-03-20T09:57:32Z</time>
      </trkpt>
      <trkpt lat="48.61507" lon="1.68206">
        <ele>160</ele>
        <time>2025-03-20T09:57:39Z</time>
      </trkpt>
      <trkpt lat="48.61498" lon="1.68214">
        <ele>159.7</ele>
        <time>2025-03-20T09:57:46Z</time>
      </trkpt>
      <trkpt lat="48.61489" lon="1.68221">
        <ele>159.8</ele>
        <time>2025-03-20T09:57:53Z</time>
      </trkpt>
      <trkpt lat="48.61481" lon="1.68227">
        <ele>160.1</ele>
        <time>2025-03-20T09:57:59Z</time>
      </trkpt>
      <trkpt lat="48.61472" lon="1.68235">
        <ele>160.1</ele>
        <time>2025-03-20T09:58:06Z</time>
      </trkpt>
      <trkpt lat="48.61464" lon="1.68239">
        <ele>160.1</ele>
        <time>2025-03-20T09:58:13Z</time>
      </trkpt>
      <trkpt lat="48.61455" lon="1.68246">
        <ele>160.3</ele>
        <time>2025-03-20T09:58:20Z</time>
      </trkpt>
      <trkpt lat="48.61446" lon="1.68249">
        <ele>160.9</ele>
        <time>2025-03-20T09:58:27Z</time>
      </trkpt>
      <trkpt lat="48.61437" lon="1.68256">
        <ele>160.5</ele>
        <time>2025-03-20T09:58:35Z</time>
      </trkpt>
      <trkpt lat="48.6143" lon="1.68266">
        <ele>159.9</ele>
        <time>2025-03-20T09:58:42Z</time>
      </trkpt>
      <trkpt lat="48.61422" lon="1.68275">
        <ele>159.7</ele>
        <time>2025-03-20T09:58:49Z</time>
      </trkpt>
      <trkpt lat="48.61416" lon="1.68286">
        <ele>159.1</ele>
        <time>2025-03-20T09:58:56Z</time>
      </trkpt>
      <trkpt lat="48.61407" lon="1.68295">
        <ele>157.9</ele>
        <time>2025-03-20T09:59:03Z</time>
      </trkpt>
      <trkpt lat="48.61399" lon="1.68302">
        <ele>156.7</ele>
        <time>2025-03-20T09:59:10Z</time>
      </trkpt>
      <trkpt lat="48.61389" lon="1.68296">
        <ele>157</ele>
        <time>2025-03-20T09:59:17Z</time>
      </trkpt>
      <trkpt lat="48.6138" lon="1.68291">
        <ele>156.2</ele>
        <time>2025-03-20T09:59:24Z</time>
      </trkpt>
      <trkpt lat="48.61371" lon="1.68284">
        <ele>156.2</ele>
        <time>2025-03-20T09:59:31Z</time>
      </trkpt>
      <trkpt lat="48.61362" lon="1.6828">
        <ele>156.4</ele>
        <time>2025-03-20T09:59:37Z</time>
      </trkpt>
      <trkpt lat="48.61353" lon="1.68276">
        <ele>156.9</ele>
        <time>2025-03-20T09:59:43Z</time>
      </trkpt>
      <trkpt lat="48.61344" lon="1.68269">
        <ele>157.4</ele>
        <time>2025-03-20T09:59:51Z</time>
      </trkpt>
      <trkpt lat="48.61335" lon="1.68264">
        <ele>157.6</ele>
        <time>2025-03-20T09:59:58Z</time>
      </trkpt>
      <trkpt lat="48.61326" lon="1.68258">
        <ele>157.7</ele>
        <time>2025-03-20T10:00:05Z</time>
      </trkpt>
      <trkpt lat="48.61317" lon="1.68252">
        <ele>158.1</ele>
        <time>2025-03-20T10:00:13Z</time>
      </trkpt>
      <trkpt lat="48.61308" lon="1.68247">
        <ele>158.2</ele>
        <time>2025-03-20T10:00:20Z</time>
      </trkpt>
      <trkpt lat="48.61298" lon="1.68241">
        <ele>158.1</ele>
        <time>2025-03-20T10:00:27Z</time>
      </trkpt>
      <trkpt lat="48.6129" lon="1.68235">
        <ele>158.3</ele>
        <time>2025-03-20T10:00:34Z</time>
      </trkpt>
      <trkpt lat="48.61281" lon="1.68229">
        <ele>158.5</ele>
        <time>2025-03-20T10:00:41Z</time>
      </trkpt>
      <trkpt lat="48.61273" lon="1.68221">
        <ele>158.7</ele>
        <time>2025-03-20T10:00:49Z</time>
      </trkpt>
      <trkpt lat="48.61264" lon="1.68216">
        <ele>158.3</ele>
        <time>2025-03-20T10:00:58Z</time>
      </trkpt>
      <trkpt lat="48.61254" lon="1.68213">
        <ele>157.6</ele>
        <time>2025-03-20T10:01:10Z</time>
      </trkpt>
      <trkpt lat="48.61245" lon="1.68216">
        <ele>157</ele>
        <time>2025-03-20T10:01:19Z</time>
      </trkpt>
      <trkpt lat="48.61235" lon="1.68213">
        <ele>156.8</ele>
        <time>2025-03-20T10:01:27Z</time>
      </trkpt>
      <trkpt lat="48.61226" lon="1.68209">
        <ele>156.6</ele>
        <time>2025-03-20T10:01:34Z</time>
      </trkpt>
      <trkpt lat="48.61216" lon="1.68207">
        <ele>156.5</ele>
        <time>2025-03-20T10:01:42Z</time>
      </trkpt>
      <trkpt lat="48.61207" lon="1.68206">
        <ele>156.6</ele>
        <time>2025-03-20T10:01:49Z</time>
      </trkpt>
      <trkpt lat="48.61197" lon="1.68205">
        <ele>156.8</ele>
        <time>2025-03-20T10:01:56Z</time>
      </trkpt>
      <trkpt lat="48.61187" lon="1.68202">
        <ele>156.8</ele>
        <time>2025-03-20T10:02:03Z</time>
      </trkpt>
      <trkpt lat="48.61178" lon="1.682">
        <ele>156.8</ele>
        <time>2025-03-20T10:02:10Z</time>
      </trkpt>
      <trkpt lat="48.61168" lon="1.68198">
        <ele>157</ele>
        <time>2025-03-20T10:02:17Z</time>
      </trkpt>
      <trkpt lat="48.61159" lon="1.68194">
        <ele>157.2</ele>
        <time>2025-03-20T10:02:24Z</time>
      </trkpt>
      <trkpt lat="48.61151" lon="1.68185">
        <ele>156.7</ele>
        <time>2025-03-20T10:02:31Z</time>
      </trkpt>
      <trkpt lat="48.61144" lon="1.68177">
        <ele>157</ele>
        <time>2025-03-20T10:02:38Z</time>
      </trkpt>
      <trkpt lat="48.61137" lon="1.68166">
        <ele>157.5</ele>
        <time>2025-03-20T10:02:45Z</time>
      </trkpt>
      <trkpt lat="48.61133" lon="1.68153">
        <ele>156.6</ele>
        <time>2025-03-20T10:02:52Z</time>
      </trkpt>
      <trkpt lat="48.61129" lon="1.6814">
        <ele>156.8</ele>
        <time>2025-03-20T10:02:59Z</time>
      </trkpt>
      <trkpt lat="48.61123" lon="1.68128">
        <ele>156.8</ele>
        <time>2025-03-20T10:03:06Z</time>
      </trkpt>
      <trkpt lat="48.61116" lon="1.6812">
        <ele>157.1</ele>
        <time>2025-03-20T10:03:13Z</time>
      </trkpt>
      <trkpt lat="48.61109" lon="1.6811">
        <ele>157</ele>
        <time>2025-03-20T10:03:20Z</time>
      </trkpt>
      <trkpt lat="48.61104" lon="1.68097">
        <ele>156.3</ele>
        <time>2025-03-20T10:03:27Z</time>
      </trkpt>
      <trkpt lat="48.61102" lon="1.68083">
        <ele>156.6</ele>
        <time>2025-03-20T10:03:34Z</time>
      </trkpt>
      <trkpt lat="48.61103" lon="1.68069">
        <ele>157.6</ele>
        <time>2025-03-20T10:03:41Z</time>
      </trkpt>
      <trkpt lat="48.61102" lon="1.68053">
        <ele>158.1</ele>
        <time>2025-03-20T10:03:49Z</time>
      </trkpt>
      <trkpt lat="48.61099" lon="1.6804">
        <ele>157.9</ele>
        <time>2025-03-20T10:03:56Z</time>
      </trkpt>
      <trkpt lat="48.61092" lon="1.6803">
        <ele>157.5</ele>
        <time>2025-03-20T10:04:03Z</time>
      </trkpt>
      <trkpt lat="48.61085" lon="1.6802">
        <ele>157.4</ele>
        <time>2025-03-20T10:04:10Z</time>
      </trkpt>
      <trkpt lat="48.6108" lon="1.68009">
        <ele>157</ele>
        <time>2025-03-20T10:04:17Z</time>
      </trkpt>
      <trkpt lat="48.61077" lon="1.67995">
        <ele>157.4</ele>
        <time>2025-03-20T10:04:24Z</time>
      </trkpt>
      <trkpt lat="48.61076" lon="1.67981">
        <ele>157.3</ele>
        <time>2025-03-20T10:04:31Z</time>
      </trkpt>
      <trkpt lat="48.61075" lon="1.67966">
        <ele>157.3</ele>
        <time>2025-03-20T10:04:38Z</time>
      </trkpt>
      <trkpt lat="48.61075" lon="1.67951">
        <ele>156.9</ele>
        <time>2025-03-20T10:04:46Z</time>
      </trkpt>
      <trkpt lat="48.61075" lon="1.67936">
        <ele>156.7</ele>
        <time>2025-03-20T10:04:53Z</time>
      </trkpt>
      <trkpt lat="48.61077" lon="1.67921">
        <ele>157.1</ele>
        <time>2025-03-20T10:05:00Z</time>
      </trkpt>
      <trkpt lat="48.61082" lon="1.67908">
        <ele>158.7</ele>
        <time>2025-03-20T10:05:08Z</time>
      </trkpt>
      <trkpt lat="48.61086" lon="1.67894">
        <ele>159.1</ele>
        <time>2025-03-20T10:05:18Z</time>
      </trkpt>
      <trkpt lat="48.6109" lon="1.67881">
        <ele>158.6</ele>
        <time>2025-03-20T10:05:29Z</time>
      </trkpt>
      <trkpt lat="48.61097" lon="1.67871">
        <ele>158.1</ele>
        <time>2025-03-20T10:05:40Z</time>
      </trkpt>
      <trkpt lat="48.61099" lon="1.67857">
        <ele>157.5</ele>
        <time>2025-03-20T10:05:49Z</time>
      </trkpt>
      <trkpt lat="48.61103" lon="1.67844">
        <ele>157.9</ele>
        <time>2025-03-20T10:06:00Z</time>
      </trkpt>
      <trkpt lat="48.61107" lon="1.67831">
        <ele>158.7</ele>
        <time>2025-03-20T10:09:02Z</time>
      </trkpt>
      <trkpt lat="48.61115" lon="1.67823">
        <ele>160.1</ele>
        <time>2025-03-20T10:09:13Z</time>
      </trkpt>
      <trkpt lat="48.61124" lon="1.67819">
        <ele>160.5</ele>
        <time>2025-03-20T10:09:23Z</time>
      </trkpt>
      <trkpt lat="48.61133" lon="1.67816">
        <ele>160.8</ele>
        <time>2025-03-20T10:09:34Z</time>
      </trkpt>
      <trkpt lat="48.61143" lon="1.67818">
        <ele>160.8</ele>
        <time>2025-03-20T10:09:43Z</time>
      </trkpt>
      <trkpt lat="48.61152" lon="1.67821">
        <ele>160.3</ele>
        <time>2025-03-20T10:09:52Z</time>
      </trkpt>
      <trkpt lat="48.6116" lon="1.67828">
        <ele>160.1</ele>
        <time>2025-03-20T10:10:01Z</time>
      </trkpt>
      <trkpt lat="48.6117" lon="1.67825">
        <ele>159.5</ele>
        <time>2025-03-20T10:10:14Z</time>
      </trkpt>
      <trkpt lat="48.61174" lon="1.67812">
        <ele>158.7</ele>
        <time>2025-03-20T10:10:22Z</time>
      </trkpt>
      <trkpt lat="48.61173" lon="1.67799">
        <ele>158.3</ele>
        <time>2025-03-20T10:10:30Z</time>
      </trkpt>
      <trkpt lat="48.6117" lon="1.67786">
        <ele>157.3</ele>
        <time>2025-03-20T10:10:40Z</time>
      </trkpt>
      <trkpt lat="48.61162" lon="1.67778">
        <ele>156.2</ele>
        <time>2025-03-20T10:10:50Z</time>
      </trkpt>
      <trkpt lat="48.61154" lon="1.67772">
        <ele>156.1</ele>
        <time>2025-03-20T10:10:59Z</time>
      </trkpt>
      <trkpt lat="48.61145" lon="1.67766">
        <ele>154.8</ele>
        <time>2025-03-20T10:11:07Z</time>
      </trkpt>
      <trkpt lat="48.61136" lon="1.67762">
        <ele>152.5</ele>
        <time>2025-03-20T10:11:16Z</time>
      </trkpt>
      <trkpt lat="48.61134" lon="1.67749">
        <ele>148.6</ele>
        <time>2025-03-20T10:11:28Z</time>
      </trkpt>
      <trkpt lat="48.61142" lon="1.67739">
        <ele>149.1</ele>
        <time>2025-03-20T10:11:37Z</time>
      </trkpt>
      <trkpt lat="48.6115" lon="1.67731">
        <ele>150.5</ele>
        <time>2025-03-20T10:11:45Z</time>
      </trkpt>
      <trkpt lat="48.61157" lon="1.67721">
        <ele>152</ele>
        <time>2025-03-20T10:11:53Z</time>
      </trkpt>
      <trkpt lat="48.61165" lon="1.67713">
        <ele>153.9</ele>
        <time>2025-03-20T10:12:00Z</time>
      </trkpt>
      <trkpt lat="48.61172" lon="1.67703">
        <ele>154.5</ele>
        <time>2025-03-20T10:12:07Z</time>
      </trkpt>
      <trkpt lat="48.6118" lon="1.67692">
        <ele>155</ele>
        <time>2025-03-20T10:12:15Z</time>
      </trkpt>
      <trkpt lat="48.61187" lon="1.67682">
        <ele>155.3</ele>
        <time>2025-03-20T10:12:23Z</time>
      </trkpt>
      <trkpt lat="48.61195" lon="1.67672">
        <ele>155.1</ele>
        <time>2025-03-20T10:12:31Z</time>
      </trkpt>
      <trkpt lat="48.61202" lon="1.67664">
        <ele>155</ele>
        <time>2025-03-20T10:12:38Z</time>
      </trkpt>
      <trkpt lat="48.6121" lon="1.67656">
        <ele>154.7</ele>
        <time>2025-03-20T10:12:45Z</time>
      </trkpt>
      <trkpt lat="48.61217" lon="1.67647">
        <ele>154.6</ele>
        <time>2025-03-20T10:12:52Z</time>
      </trkpt>
      <trkpt lat="48.61224" lon="1.67639">
        <ele>154.3</ele>
        <time>2025-03-20T10:12:59Z</time>
      </trkpt>
      <trkpt lat="48.61232" lon="1.6763">
        <ele>155</ele>
        <time>2025-03-20T10:13:07Z</time>
      </trkpt>
      <trkpt lat="48.61239" lon="1.67621">
        <ele>155.4</ele>
        <time>2025-03-20T10:13:14Z</time>
      </trkpt>
      <trkpt lat="48.61247" lon="1.67611">
        <ele>155.7</ele>
        <time>2025-03-20T10:13:22Z</time>
      </trkpt>
      <trkpt lat="48.61255" lon="1.67602">
        <ele>156.9</ele>
        <time>2025-03-20T10:13:30Z</time>
      </trkpt>
      <trkpt lat="48.61263" lon="1.67594">
        <ele>157.5</ele>
        <time>2025-03-20T10:13:38Z</time>
      </trkpt>
      <trkpt lat="48.61271" lon="1.67586">
        <ele>157.2</ele>
        <time>2025-03-20T10:13:46Z</time>
      </trkpt>
      <trkpt lat="48.61281" lon="1.67581">
        <ele>157.1</ele>
        <time>2025-03-20T10:13:54Z</time>
      </trkpt>
      <trkpt lat="48.6129" lon="1.67576">
        <ele>157.4</ele>
        <time>2025-03-20T10:14:02Z</time>
      </trkpt>
      <trkpt lat="48.61299" lon="1.67572">
        <ele>157.2</ele>
        <time>2025-03-20T10:14:09Z</time>
      </trkpt>
      <trkpt lat="48.61309" lon="1.67568">
        <ele>156.9</ele>
        <time>2025-03-20T10:14:16Z</time>
      </trkpt>
      <trkpt lat="48.61318" lon="1.67563">
        <ele>156.6</ele>
        <time>2025-03-20T10:14:23Z</time>
      </trkpt>
      <trkpt lat="48.61327" lon="1.6756">
        <ele>156.6</ele>
        <time>2025-03-20T10:14:30Z</time>
      </trkpt>
      <trkpt lat="48.61337" lon="1.67555">
        <ele>156.1</ele>
        <time>2025-03-20T10:14:38Z</time>
      </trkpt>
      <trkpt lat="48.61345" lon="1.67551">
        <ele>155.4</ele>
        <time>2025-03-20T10:14:45Z</time>
      </trkpt>
      <trkpt lat="48.61354" lon="1.67545">
        <ele>155.1</ele>
        <time>2025-03-20T10:14:52Z</time>
      </trkpt>
      <trkpt lat="48.61363" lon="1.6754">
        <ele>155.3</ele>
        <time>2025-03-20T10:14:59Z</time>
      </trkpt>
      <trkpt lat="48.61372" lon="1.67535">
        <ele>155.2</ele>
        <time>2025-03-20T10:15:06Z</time>
      </trkpt>
      <trkpt lat="48.61382" lon="1.67534">
        <ele>155.8</ele>
        <time>2025-03-20T10:15:13Z</time>
      </trkpt>
      <trkpt lat="48.61391" lon="1.67534">
        <ele>156.4</ele>
        <time>2025-03-20T10:15:20Z</time>
      </trkpt>
      <trkpt lat="48.61401" lon="1.67536">
        <ele>156.5</ele>
        <time>2025-03-20T10:15:27Z</time>
      </trkpt>
      <trkpt lat="48.61409" lon="1.67543">
        <ele>156.7</ele>
        <time>2025-03-20T10:15:34Z</time>
      </trkpt>
      <trkpt lat="48.61417" lon="1.6755">
        <ele>156.7</ele>
        <time>2025-03-20T10:15:41Z</time>
      </trkpt>
      <trkpt lat="48.61423" lon="1.67561">
        <ele>156.7</ele>
        <time>2025-03-20T10:15:48Z</time>
      </trkpt>
      <trkpt lat="48.61431" lon="1.67572">
        <ele>157.3</ele>
        <time>2025-03-20T10:15:56Z</time>
      </trkpt>
      <trkpt lat="48.61438" lon="1.67581">
        <ele>158</ele>
        <time>2025-03-20T10:16:04Z</time>
      </trkpt>
      <trkpt lat="48.61445" lon="1.6759">
        <ele>158</ele>
        <time>2025-03-20T10:16:11Z</time>
      </trkpt>
      <trkpt lat="48.61452" lon="1.676">
        <ele>156.9</ele>
        <time>2025-03-20T10:16:18Z</time>
      </trkpt>
      <trkpt lat="48.61457" lon="1.67611">
        <ele>156.7</ele>
        <time>2025-03-20T10:16:25Z</time>
      </trkpt>
      <trkpt lat="48.61462" lon="1.67624">
        <ele>157.2</ele>
        <time>2025-03-20T10:16:32Z</time>
      </trkpt>
      <trkpt lat="48.61466" lon="1.67637">
        <ele>158.3</ele>
        <time>2025-03-20T10:16:39Z</time>
      </trkpt>
      <trkpt lat="48.61472" lon="1.67648">
        <ele>158.6</ele>
        <time>2025-03-20T10:16:46Z</time>
      </trkpt>
      <trkpt lat="48.6148" lon="1.67658">
        <ele>157.9</ele>
        <time>2025-03-20T10:16:54Z</time>
      </trkpt>
      <trkpt lat="48.61487" lon="1.67667">
        <ele>157.9</ele>
        <time>2025-03-20T10:17:01Z</time>
      </trkpt>
      <trkpt lat="48.61495" lon="1.67677">
        <ele>158</ele>
        <time>2025-03-20T10:17:08Z</time>
      </trkpt>
      <trkpt lat="48.61503" lon="1.67686">
        <ele>158.4</ele>
        <time>2025-03-20T10:17:15Z</time>
      </trkpt>
      <trkpt lat="48.61512" lon="1.67694">
        <ele>159</ele>
        <time>2025-03-20T10:17:22Z</time>
      </trkpt>
      <trkpt lat="48.61521" lon="1.67698">
        <ele>158.6</ele>
        <time>2025-03-20T10:17:29Z</time>
      </trkpt>
      <trkpt lat="48.6153" lon="1.67701">
        <ele>157.8</ele>
        <time>2025-03-20T10:17:36Z</time>
      </trkpt>
      <trkpt lat="48.6154" lon="1.67705">
        <ele>156.8</ele>
        <time>2025-03-20T10:17:43Z</time>
      </trkpt>
      <trkpt lat="48.61548" lon="1.67712">
        <ele>156.9</ele>
        <time>2025-03-20T10:17:50Z</time>
      </trkpt>
      <trkpt lat="48.61557" lon="1.67719">
        <ele>158</ele>
        <time>2025-03-20T10:17:57Z</time>
      </trkpt>
      <trkpt lat="48.61565" lon="1.67728">
        <ele>157.8</ele>
        <time>2025-03-20T10:18:05Z</time>
      </trkpt>
      <trkpt lat="48.61575" lon="1.67729">
        <ele>156.4</ele>
        <time>2025-03-20T10:18:13Z</time>
      </trkpt>
      <trkpt lat="48.61584" lon="1.67733">
        <ele>155.9</ele>
        <time>2025-03-20T10:18:20Z</time>
      </trkpt>
      <trkpt lat="48.61593" lon="1.67738">
        <ele>155.7</ele>
        <time>2025-03-20T10:18:27Z</time>
      </trkpt>
      <trkpt lat="48.61602" lon="1.67744">
        <ele>156.1</ele>
        <time>2025-03-20T10:18:34Z</time>
      </trkpt>
      <trkpt lat="48.6161" lon="1.67752">
        <ele>157.2</ele>
        <time>2025-03-20T10:18:41Z</time>
      </trkpt>
      <trkpt lat="48.61619" lon="1.6776">
        <ele>156.3</ele>
        <time>2025-03-20T10:18:48Z</time>
      </trkpt>
      <trkpt lat="48.61626" lon="1.67768">
        <ele>156.3</ele>
        <time>2025-03-20T10:18:55Z</time>
      </trkpt>
      <trkpt lat="48.61635" lon="1.67776">
        <ele>156.9</ele>
        <time>2025-03-20T10:19:03Z</time>
      </trkpt>
      <trkpt lat="48.61644" lon="1.67778">
        <ele>156.8</ele>
        <time>2025-03-20T10:19:10Z</time>
      </trkpt>
      <trkpt lat="48.61654" lon="1.6778">
        <ele>156.5</ele>
        <time>2025-03-20T10:19:21Z</time>
      </trkpt>
      <trkpt lat="48.61662" lon="1.67783">
        <ele>156.3</ele>
        <time>2025-03-20T10:19:29Z</time>
      </trkpt>
      <trkpt lat="48.61672" lon="1.67787">
        <ele>155.5</ele>
        <time>2025-03-20T10:19:37Z</time>
      </trkpt>
      <trkpt lat="48.6168" lon="1.67792">
        <ele>154.6</ele>
        <time>2025-03-20T10:19:44Z</time>
      </trkpt>
      <trkpt lat="48.61687" lon="1.67801">
        <ele>154.3</ele>
        <time>2025-03-20T10:19:51Z</time>
      </trkpt>
      <trkpt lat="48.61693" lon="1.67813">
        <ele>154.7</ele>
        <time>2025-03-20T10:19:59Z</time>
      </trkpt>
      <trkpt lat="48.61699" lon="1.67826">
        <ele>154.7</ele>
        <time>2025-03-20T10:20:07Z</time>
      </trkpt>
      <trkpt lat="48.61705" lon="1.67835">
        <ele>154.6</ele>
        <time>2025-03-20T10:20:14Z</time>
      </trkpt>
      <trkpt lat="48.61713" lon="1.67845">
        <ele>154.6</ele>
        <time>2025-03-20T10:20:22Z</time>
      </trkpt>
      <trkpt lat="48.6172" lon="1.67853">
        <ele>154.9</ele>
        <time>2025-03-20T10:20:30Z</time>
      </trkpt>
      <trkpt lat="48.61727" lon="1.67862">
        <ele>155</ele>
        <time>2025-03-20T10:20:38Z</time>
      </trkpt>
      <trkpt lat="48.61731" lon="1.67875">
        <ele>153.9</ele>
        <time>2025-03-20T10:20:45Z</time>
      </trkpt>
      <trkpt lat="48.61733" lon="1.67888">
        <ele>153.2</ele>
        <time>2025-03-20T10:20:52Z</time>
      </trkpt>
      <trkpt lat="48.61736" lon="1.67903">
        <ele>153.1</ele>
        <time>2025-03-20T10:20:59Z</time>
      </trkpt>
      <trkpt lat="48.61738" lon="1.67917">
        <ele>153.2</ele>
        <time>2025-03-20T10:21:06Z</time>
      </trkpt>
      <trkpt lat="48.61738" lon="1.67932">
        <ele>153.5</ele>
        <time>2025-03-20T10:21:13Z</time>
      </trkpt>
      <trkpt lat="48.61738" lon="1.67947">
        <ele>154</ele>
        <time>2025-03-20T10:21:20Z</time>
      </trkpt>
      <trkpt lat="48.61742" lon="1.67961">
        <ele>154.8</ele>
        <time>2025-03-20T10:21:28Z</time>
      </trkpt>
      <trkpt lat="48.61747" lon="1.67974">
        <ele>156.1</ele>
        <time>2025-03-20T10:21:36Z</time>
      </trkpt>
      <trkpt lat="48.61749" lon="1.67988">
        <ele>156.6</ele>
        <time>2025-03-20T10:21:44Z</time>
      </trkpt>
      <trkpt lat="48.61758" lon="1.67992">
        <ele>154.5</ele>
        <time>2025-03-20T10:21:55Z</time>
      </trkpt>
      <trkpt lat="48.61765" lon="1.68004">
        <ele>153</ele>
        <time>2025-03-20T10:22:05Z</time>
      </trkpt>
      <trkpt lat="48.61772" lon="1.68013">
        <ele>151</ele>
        <time>2025-03-20T10:22:13Z</time>
      </trkpt>
      <trkpt lat="48.61773" lon="1.68027">
        <ele>150.5</ele>
        <time>2025-03-20T10:22:20Z</time>
      </trkpt>
      <trkpt lat="48.61771" lon="1.68042">
        <ele>151.6</ele>
        <time>2025-03-20T10:22:27Z</time>
      </trkpt>
      <trkpt lat="48.6177" lon="1.68056">
        <ele>152.6</ele>
        <time>2025-03-20T10:22:35Z</time>
      </trkpt>
      <trkpt lat="48.61766" lon="1.68069">
        <ele>154.1</ele>
        <time>2025-03-20T10:22:44Z</time>
      </trkpt>
      <trkpt lat="48.61775" lon="1.68072">
        <ele>153.9</ele>
        <time>2025-03-20T10:22:54Z</time>
      </trkpt>
      <trkpt lat="48.61784" lon="1.68069">
        <ele>153.1</ele>
        <time>2025-03-20T10:23:02Z</time>
      </trkpt>
      <trkpt lat="48.61792" lon="1.68075">
        <ele>153.5</ele>
        <time>2025-03-20T10:23:11Z</time>
      </trkpt>
      <trkpt lat="48.61801" lon="1.68082">
        <ele>153.9</ele>
        <time>2025-03-20T10:23:18Z</time>
      </trkpt>
      <trkpt lat="48.61811" lon="1.68085">
        <ele>154.3</ele>
        <time>2025-03-20T10:23:26Z</time>
      </trkpt>
      <trkpt lat="48.6182" lon="1.68081">
        <ele>154.2</ele>
        <time>2025-03-20T10:23:34Z</time>
      </trkpt>
      <trkpt lat="48.61828" lon="1.68089">
        <ele>154.9</ele>
        <time>2025-03-20T10:23:42Z</time>
      </trkpt>
      <trkpt lat="48.61831" lon="1.68102">
        <ele>155</ele>
        <time>2025-03-20T10:23:49Z</time>
      </trkpt>
      <trkpt lat="48.61837" lon="1.68114">
        <ele>154.8</ele>
        <time>2025-03-20T10:23:57Z</time>
      </trkpt>
      <trkpt lat="48.61844" lon="1.68123">
        <ele>154.6</ele>
        <time>2025-03-20T10:24:04Z</time>
      </trkpt>
      <trkpt lat="48.61851" lon="1.68135">
        <ele>155.1</ele>
        <time>2025-03-20T10:24:12Z</time>
      </trkpt>
      <trkpt lat="48.61856" lon="1.68148">
        <ele>155.2</ele>
        <time>2025-03-20T10:24:20Z</time>
      </trkpt>
      <trkpt lat="48.61862" lon="1.6816">
        <ele>154.8</ele>
        <time>2025-03-20T10:24:28Z</time>
      </trkpt>
      <trkpt lat="48.61867" lon="1.68172">
        <ele>154.7</ele>
        <time>2025-03-20T10:24:36Z</time>
      </trkpt>
      <trkpt lat="48.61872" lon="1.68185">
        <ele>155.3</ele>
        <time>2025-03-20T10:24:44Z</time>
      </trkpt>
      <trkpt lat="48.61879" lon="1.68194">
        <ele>155.9</ele>
        <time>2025-03-20T10:24:54Z</time>
      </trkpt>
      <trkpt lat="48.61888" lon="1.68197">
        <ele>156.1</ele>
        <time>2025-03-20T10:25:02Z</time>
      </trkpt>
      <trkpt lat="48.61892" lon="1.6821">
        <ele>156.3</ele>
        <time>2025-03-20T10:25:10Z</time>
      </trkpt>
      <trkpt lat="48.619" lon="1.68219">
        <ele>156.1</ele>
        <time>2025-03-20T10:25:18Z</time>
      </trkpt>
      <trkpt lat="48.61909" lon="1.68224">
        <ele>155.6</ele>
        <time>2025-03-20T10:25:25Z</time>
      </trkpt>
      <trkpt lat="48.61911" lon="1.68238">
        <ele>155.8</ele>
        <time>2025-03-20T10:25:32Z</time>
      </trkpt>
      <trkpt lat="48.61911" lon="1.68252">
        <ele>156.2</ele>
        <time>2025-03-20T10:25:39Z</time>
      </trkpt>
      <trkpt lat="48.61913" lon="1.68266">
        <ele>156.1</ele>
        <time>2025-03-20T10:25:46Z</time>
      </trkpt>
      <trkpt lat="48.61916" lon="1.68279">
        <ele>156</ele>
        <time>2025-03-20T10:25:53Z</time>
      </trkpt>
      <trkpt lat="48.61914" lon="1.68293">
        <ele>155.6</ele>
        <time>2025-03-20T10:26:00Z</time>
      </trkpt>
      <trkpt lat="48.61913" lon="1.68308">
        <ele>155.2</ele>
        <time>2025-03-20T10:26:07Z</time>
      </trkpt>
      <trkpt lat="48.61917" lon="1.68322">
        <ele>154.8</ele>
        <time>2025-03-20T10:26:15Z</time>
      </trkpt>
      <trkpt lat="48.6192" lon="1.68336">
        <ele>154.3</ele>
        <time>2025-03-20T10:26:23Z</time>
      </trkpt>
      <trkpt lat="48.61923" lon="1.68351">
        <ele>154.3</ele>
        <time>2025-03-20T10:26:31Z</time>
      </trkpt>
      <trkpt lat="48.61924" lon="1.68366">
        <ele>154.7</ele>
        <time>2025-03-20T10:26:39Z</time>
      </trkpt>
      <trkpt lat="48.61921" lon="1.6838">
        <ele>155.3</ele>
        <time>2025-03-20T10:26:47Z</time>
      </trkpt>
      <trkpt lat="48.61919" lon="1.68395">
        <ele>155.7</ele>
        <time>2025-03-20T10:26:55Z</time>
      </trkpt>
      <trkpt lat="48.61918" lon="1.6841">
        <ele>155.9</ele>
        <time>2025-03-20T10:27:03Z</time>
      </trkpt>
      <trkpt lat="48.61916" lon="1.68425">
        <ele>156</ele>
        <time>2025-03-20T10:27:11Z</time>
      </trkpt>
      <trkpt lat="48.61911" lon="1.68438">
        <ele>156.3</ele>
        <time>2025-03-20T10:27:19Z</time>
      </trkpt>
      <trkpt lat="48.61921" lon="1.68439">
        <ele>155.7</ele>
        <time>2025-03-20T10:27:28Z</time>
      </trkpt>
      <trkpt lat="48.61931" lon="1.68439">
        <ele>155</ele>
        <time>2025-03-20T10:27:36Z</time>
      </trkpt>
      <trkpt lat="48.6194" lon="1.6844">
        <ele>154.3</ele>
        <time>2025-03-20T10:27:47Z</time>
      </trkpt>
      <trkpt lat="48.6195" lon="1.68445">
        <ele>153.4</ele>
        <time>2025-03-20T10:28:01Z</time>
      </trkpt>
      <trkpt lat="48.6196" lon="1.68447">
        <ele>152.5</ele>
        <time>2025-03-20T10:28:16Z</time>
      </trkpt>
      <trkpt lat="48.61968" lon="1.6845">
        <ele>151.8</ele>
        <time>2025-03-20T10:28:25Z</time>
      </trkpt>
      <trkpt lat="48.61978" lon="1.68452">
        <ele>150.5</ele>
        <time>2025-03-20T10:28:42Z</time>
      </trkpt>
      <trkpt lat="48.61985" lon="1.68461">
        <ele>149.5</ele>
        <time>2025-03-20T10:28:54Z</time>
      </trkpt>
      <trkpt lat="48.61995" lon="1.68458">
        <ele>147.5</ele>
        <time>2025-03-20T10:29:04Z</time>
      </trkpt>
      <trkpt lat="48.62003" lon="1.68465">
        <ele>146.2</ele>
        <time>2025-03-20T10:29:13Z</time>
      </trkpt>
      <trkpt lat="48.62012" lon="1.68471">
        <ele>145.1</ele>
        <time>2025-03-20T10:29:22Z</time>
      </trkpt>
      <trkpt lat="48.62022" lon="1.68474">
        <ele>144</ele>
        <time>2025-03-20T10:29:33Z</time>
      </trkpt>
      <trkpt lat="48.62029" lon="1.68484">
        <ele>143.3</ele>
        <time>2025-03-20T10:29:42Z</time>
      </trkpt>
      <trkpt lat="48.62036" lon="1.68493">
        <ele>142.6</ele>
        <time>2025-03-20T10:29:51Z</time>
      </trkpt>
      <trkpt lat="48.62043" lon="1.68503">
        <ele>142.1</ele>
        <time>2025-03-20T10:30:00Z</time>
      </trkpt>
      <trkpt lat="48.62051" lon="1.68511">
        <ele>141.2</ele>
        <time>2025-03-20T10:30:10Z</time>
      </trkpt>
      <trkpt lat="48.62058" lon="1.6852">
        <ele>140.5</ele>
        <time>2025-03-20T10:30:20Z</time>
      </trkpt>
      <trkpt lat="48.62065" lon="1.68531">
        <ele>140.6</ele>
        <time>2025-03-20T10:30:29Z</time>
      </trkpt>
      <trkpt lat="48.62073" lon="1.68536">
        <ele>140.5</ele>
        <time>2025-03-20T10:30:36Z</time>
      </trkpt>
      <trkpt lat="48.62082" lon="1.68541">
        <ele>140.1</ele>
        <time>2025-03-20T10:30:43Z</time>
      </trkpt>
      <trkpt lat="48.62091" lon="1.68546">
        <ele>139.7</ele>
        <time>2025-03-20T10:30:50Z</time>
      </trkpt>
      <trkpt lat="48.62101" lon="1.68546">
        <ele>139</ele>
        <time>2025-03-20T10:30:57Z</time>
      </trkpt>
      <trkpt lat="48.6211" lon="1.68548">
        <ele>138.5</ele>
        <time>2025-03-20T10:31:05Z</time>
      </trkpt>
      <trkpt lat="48.6212" lon="1.68549">
        <ele>137.9</ele>
        <time>2025-03-20T10:31:12Z</time>
      </trkpt>
      <trkpt lat="48.62129" lon="1.68548">
        <ele>137.3</ele>
        <time>2025-03-20T10:31:19Z</time>
      </trkpt>
      <trkpt lat="48.62139" lon="1.68546">
        <ele>136.6</ele>
        <time>2025-03-20T10:31:26Z</time>
      </trkpt>
      <trkpt lat="48.6215" lon="1.68546">
        <ele>135.6</ele>
        <time>2025-03-20T10:31:33Z</time>
      </trkpt>
      <trkpt lat="48.62159" lon="1.68544">
        <ele>134.7</ele>
        <time>2025-03-20T10:31:40Z</time>
      </trkpt>
      <trkpt lat="48.62168" lon="1.68544">
        <ele>133.9</ele>
        <time>2025-03-20T10:31:47Z</time>
      </trkpt>
      <trkpt lat="48.62179" lon="1.68542">
        <ele>133.1</ele>
        <time>2025-03-20T10:31:54Z</time>
      </trkpt>
      <trkpt lat="48.62188" lon="1.68541">
        <ele>132.5</ele>
        <time>2025-03-20T10:32:00Z</time>
      </trkpt>
      <trkpt lat="48.62198" lon="1.6854">
        <ele>131.8</ele>
        <time>2025-03-20T10:32:09Z</time>
      </trkpt>
      <trkpt lat="48.62207" lon="1.68539">
        <ele>131.1</ele>
        <time>2025-03-20T10:32:17Z</time>
      </trkpt>
      <trkpt lat="48.62217" lon="1.68538">
        <ele>130.4</ele>
        <time>2025-03-20T10:32:25Z</time>
      </trkpt>
      <trkpt lat="48.62227" lon="1.68538">
        <ele>129.7</ele>
        <time>2025-03-20T10:32:33Z</time>
      </trkpt>
      <trkpt lat="48.62236" lon="1.68537">
        <ele>129</ele>
        <time>2025-03-20T10:32:40Z</time>
      </trkpt>
      <trkpt lat="48.62246" lon="1.68537">
        <ele>128.3</ele>
        <time>2025-03-20T10:32:47Z</time>
      </trkpt>
      <trkpt lat="48.62255" lon="1.68536">
        <ele>127.8</ele>
        <time>2025-03-20T10:32:54Z</time>
      </trkpt>
      <trkpt lat="48.62264" lon="1.68535">
        <ele>127.5</ele>
        <time>2025-03-20T10:33:01Z</time>
      </trkpt>
      <trkpt lat="48.62274" lon="1.68536">
        <ele>127.1</ele>
        <time>2025-03-20T10:33:09Z</time>
      </trkpt>
      <trkpt lat="48.62284" lon="1.68538">
        <ele>126.8</ele>
        <time>2025-03-20T10:33:17Z</time>
      </trkpt>
      <trkpt lat="48.62293" lon="1.68537">
        <ele>126.4</ele>
        <time>2025-03-20T10:33:26Z</time>
      </trkpt>
      <trkpt lat="48.62303" lon="1.68535">
        <ele>126.1</ele>
        <time>2025-03-20T10:33:37Z</time>
      </trkpt>
      <trkpt lat="48.62312" lon="1.68533">
        <ele>125.8</ele>
        <time>2025-03-20T10:33:45Z</time>
      </trkpt>
      <trkpt lat="48.62322" lon="1.68532">
        <ele>125.4</ele>
        <time>2025-03-20T10:33:53Z</time>
      </trkpt>
      <trkpt lat="48.62331" lon="1.68531">
        <ele>125.1</ele>
        <time>2025-03-20T10:34:01Z</time>
      </trkpt>
      <trkpt lat="48.62341" lon="1.68532">
        <ele>124.8</ele>
        <time>2025-03-20T10:34:09Z</time>
      </trkpt>
      <trkpt lat="48.62351" lon="1.68531">
        <ele>124.4</ele>
        <time>2025-03-20T10:34:17Z</time>
      </trkpt>
      <trkpt lat="48.6236" lon="1.68529">
        <ele>124.1</ele>
        <time>2025-03-20T10:34:24Z</time>
      </trkpt>
      <trkpt lat="48.62369" lon="1.68528">
        <ele>124</ele>
        <time>2025-03-20T10:34:32Z</time>
      </trkpt>
      <trkpt lat="48.62379" lon="1.68524">
        <ele>124</ele>
        <time>2025-03-20T10:34:39Z</time>
      </trkpt>
      <trkpt lat="48.62382" lon="1.6851">
        <ele>124</ele>
        <time>2025-03-20T10:34:47Z</time>
      </trkpt>
      <trkpt lat="48.62385" lon="1.68496">
        <ele>123.9</ele>
        <time>2025-03-20T10:34:55Z</time>
      </trkpt>
      <trkpt lat="48.62387" lon="1.68481">
        <ele>123.4</ele>
        <time>2025-03-20T10:35:03Z</time>
      </trkpt>
      <trkpt lat="48.6239" lon="1.68468">
        <ele>123</ele>
        <time>2025-03-20T10:35:10Z</time>
      </trkpt>
      <trkpt lat="48.62392" lon="1.68454">
        <ele>123</ele>
        <time>2025-03-20T10:35:18Z</time>
      </trkpt>
      <trkpt lat="48.62394" lon="1.68439">
        <ele>122.8</ele>
        <time>2025-03-20T10:35:26Z</time>
      </trkpt>
      <trkpt lat="48.62396" lon="1.68425">
        <ele>122.5</ele>
        <time>2025-03-20T10:35:33Z</time>
      </trkpt>
      <trkpt lat="48.62395" lon="1.6841">
        <ele>122.2</ele>
        <time>2025-03-20T10:35:40Z</time>
      </trkpt>
      <trkpt lat="48.62395" lon="1.68396">
        <ele>122.2</ele>
        <time>2025-03-20T10:35:47Z</time>
      </trkpt>
      <trkpt lat="48.62395" lon="1.68381">
        <ele>122.1</ele>
        <time>2025-03-20T10:35:54Z</time>
      </trkpt>
      <trkpt lat="48.62394" lon="1.68366">
        <ele>122</ele>
        <time>2025-03-20T10:36:01Z</time>
      </trkpt>
      <trkpt lat="48.62395" lon="1.68352">
        <ele>121.7</ele>
        <time>2025-03-20T10:36:08Z</time>
      </trkpt>
      <trkpt lat="48.62395" lon="1.68337">
        <ele>121.1</ele>
        <time>2025-03-20T10:36:16Z</time>
      </trkpt>
      <trkpt lat="48.62398" lon="1.68322">
        <ele>121</ele>
        <time>2025-03-20T10:36:24Z</time>
      </trkpt>
      <trkpt lat="48.62398" lon="1.68308">
        <ele>121</ele>
        <time>2025-03-20T10:36:32Z</time>
      </trkpt>
      <trkpt lat="48.62397" lon="1.68293">
        <ele>121</ele>
        <time>2025-03-20T10:36:40Z</time>
      </trkpt>
      <trkpt lat="48.62397" lon="1.68279">
        <ele>121</ele>
        <time>2025-03-20T10:36:48Z</time>
      </trkpt>
      <trkpt lat="48.62398" lon="1.68265">
        <ele>120.7</ele>
        <time>2025-03-20T10:36:57Z</time>
      </trkpt>
      <trkpt lat="48.62403" lon="1.68253">
        <ele>120.5</ele>
        <time>2025-03-20T10:37:05Z</time>
      </trkpt>
      <trkpt lat="48.62412" lon="1.68249">
        <ele>120.8</ele>
        <time>2025-03-20T10:37:15Z</time>
      </trkpt>
    </trkseg>
  </trk>
</gpx>